Observation data for Persimmon Gap on 01/12/2018      Previous  Date  Next       Current Mesonet Observations  Soil Data  Daily Summary Page  Observations in Plain Language
KPG1 120601Z 06003KT 05/M06 A3031 RMK A01 T00501057  RH  046%=      5-min Rain = 0
KPG1 120602Z 07003KT 05/M06 A3031 RMK A01 T00511056  RH  046%=      5-min Rain = 0
KPG1 120603Z 06003KT 05/M06 A3031 RMK A01 T00511057  RH  046%=      5-min Rain = 0
KPG1 120604Z 06003KT 05/M06 A3031 RMK A01 T00511057  RH  046%=      5-min Rain = 0
KPG1 120605Z 06003KT 05/M06 A3031 RMK A01 T00501057  RH  046%=      5-min Rain = 0
KPG1 120606Z 06003KT 05/M06 A3031 RMK A01 T00501057  RH  046%=      5-min Rain = 0
KPG1 120607Z 05003KT 05/M06 A3031 RMK A01 T00501057  RH  046%=      5-min Rain = 0
KPG1 120608Z 06003KT 05/M06 A3031 RMK A01 T00501057  RH  046%=      5-min Rain = 0
KPG1 120609Z 06004KT 05/M06 A3031 RMK A01 T00501057  RH  046%=      5-min Rain = 0
KPG1 120610Z 05004KT 05/M06 A3031 RMK A01 T00501057  RH  046%=      5-min Rain = 0
KPG1 120611Z 05003KT 05/M06 A3031 RMK A01 T00481058  RH  046%=      5-min Rain = 0
KPG1 120612Z 05003KT 05/M06 A3031 RMK A01 T00471057  RH  047%=      5-min Rain = 0
KPG1 120613Z 04004KT 05/M06 A3031 RMK A01 T00471057  RH  047%=      5-min Rain = 0
KPG1 120614Z 04004KT 05/M06 A3031 RMK A01 T00481057  RH  046%=      5-min Rain = 0
KPG1 120615Z 03004KT 05/M06 A3031 RMK A01 T00491057  RH  046%=      5-min Rain = 0
KPG1 120616Z 03004KT 05/M06 A3031 RMK A01 T00501057  RH  046%=      5-min Rain = 0
KPG1 120617Z 04004KT 05/M06 A3031 RMK A01 T00511056  RH  046%=      5-min Rain = 0
KPG1 120618Z 04004KT 05/M06 A3031 RMK A01 T00521056  RH  045%=      5-min Rain = 0
KPG1 120619Z 04003KT 05/M06 A3031 RMK A01 T00501058  RH  045%=      5-min Rain = 0
KPG1 120620Z 03003KT 05/M06 A3031 RMK A01 T00471059  RH  046%=      5-min Rain = 0
KPG1 120621Z 05003KT 05/M06 A3031 RMK A01 T00461058  RH  047%=      5-min Rain = 0
KPG1 120622Z 05004KT 05/M06 A3031 RMK A01 T00481057  RH  047%=      5-min Rain = 0
KPG1 120623Z 06005KT 05/M06 A3031 RMK A01 T00491056  RH  046%=      5-min Rain = 0
KPG1 120624Z 06005KT 05/M06 A3031 RMK A01 T00481057  RH  046%=      5-min Rain = 0
KPG1 120625Z 06005KT 05/M06 A303 RMK A01 T00481057  RH  047%=      5-min Rain = 0
KPG1 120626Z 04005KT 05/M06 A303 RMK A01 T00461058  RH  047%=      5-min Rain = 0
KPG1 120627Z 04005KT 05/M06 A303 RMK A01 T00461058  RH  047%=      5-min Rain = 0
KPG1 120628Z 04005KT 05/M06 A303 RMK A01 T00481057  RH  047%=      5-min Rain = 0
KPG1 120629Z 03006KT 05/M06 A303 RMK A01 T00491056  RH  046%=      5-min Rain = 0
KPG1 120630Z 03006KT 05/M06 A303 RMK A01 T00511056  RH  046%=      5-min Rain = 0
KPG1 120631Z 03006KT 05/M06 A303 RMK A01 T00511057  RH  046%=      5-min Rain = 0
KPG1 120632Z 04006KT 05/M06 A303 RMK A01 T00521057  RH  045%=      5-min Rain = 0
KPG1 120633Z 04006KT 05/M06 A303 RMK A01 T00531057  RH  045%=      5-min Rain = 0
KPG1 120634Z 04005KT 05/M06 A303 RMK A01 T00541057  RH  045%=      5-min Rain = 0
KPG1 120635Z 03006KT 06/M06 A303 RMK A01 T00561057  RH  044%=      5-min Rain = 0
KPG1 120636Z 03005KT 06/M06 A303 RMK A01 T00571057  RH  044%=      5-min Rain = 0
KPG1 120637Z 04005KT 06/M06 A303 RMK A01 T00581057  RH  044%=      5-min Rain = 0
KPG1 120638Z 03004KT 06/M06 A303 RMK A01 T00571058  RH  044%=      5-min Rain = 0
KPG1 120639Z 03004KT 06/M06 A303 RMK A01 T00561058  RH  044%=      5-min Rain = 0
KPG1 120640Z 05003KT 06/M06 A303 RMK A01 T00561058  RH  044%=      5-min Rain = 0
KPG1 120641Z 06004KT 06/M06 A303 RMK A01 T00561057  RH  044%=      5-min Rain = 0
KPG1 120642Z 06004KT 06/M06 A303 RMK A01 T00551057  RH  044%=      5-min Rain = 0
KPG1 120643Z 06003KT 06/M06 A303 RMK A01 T00561057  RH  044%=      5-min Rain = 0
KPG1 120644Z 06004KT 06/M06 A303 RMK A01 T00571057  RH  044%=      5-min Rain = 0
KPG1 120645Z 05004KT 06/M06 A303 RMK A01 T00571057  RH  044%=      5-min Rain = 0
KPG1 120646Z 04004KT 06/M06 A303 RMK A01 T00581057  RH  043%=      5-min Rain = 0
KPG1 120647Z 04005KT 06/M06 A303 RMK A01 T00581058  RH  043%=      5-min Rain = 0
KPG1 120648Z 04005KT 06/M06 A303 RMK A01 T00561058  RH  043%=      5-min Rain = 0
KPG1 120649Z 04005KT 06/M06 A303 RMK A01 T00561059  RH  044%=      5-min Rain = 0
KPG1 120650Z 04005KT 06/M06 A3029 RMK A01 T00551059  RH  044%=      5-min Rain = 0
KPG1 120651Z 04006KT 06/M06 A3029 RMK A01 T00551058  RH  044%=      5-min Rain = 0
KPG1 120652Z 04006KT 06/M06 A3029 RMK A01 T00561058  RH  044%=      5-min Rain = 0
KPG1 120653Z 04006KT 06/M06 A3029 RMK A01 T00561058  RH  043%=      5-min Rain = 0
KPG1 120654Z 05006KT 06/M06 A3029 RMK A01 T00561059  RH  044%=      5-min Rain = 0
KPG1 120655Z 05005KT 06/M06 A3029 RMK A01 T00551059  RH  044%=      5-min Rain = 0
KPG1 120656Z 05004KT 05/M06 A3029 RMK A01 T00541059  RH  044%=      5-min Rain = 0
KPG1 120657Z 05004KT 05/M06 A3029 RMK A01 T00531059  RH  044%=      5-min Rain = 0
KPG1 120658Z 06004KT 05/M06 A3029 RMK A01 T00521059  RH  045%=      5-min Rain = 0
KPG1 120659Z 05005KT 05/M06 A3029 RMK A01 T00531058  RH  044%=      5-min Rain = 0
KPG1 120700Z 04005KT 05/M06 A3029 RMK A01 T00541058  RH  044%=      5-min Rain = 0
KPG1 120701Z 04005KT 06/M06 A3029 RMK A01 T00571058  RH  044%=      5-min Rain = 0
KPG1 120702Z 04005KT 06/M06 A3029 RMK A01 T00591058  RH  043%=      5-min Rain = 0
KPG1 120703Z 04006KT 06/M06 A3029 RMK A01 T00611058  RH  042%=      5-min Rain = 0
KPG1 120704Z 05006KT 06/M06 A3029 RMK A01 T00611058  RH  042%=      5-min Rain = 0
KPG1 120705Z 04007KT 06/M06 A3029 RMK A01 T00631058  RH  042%=      5-min Rain = 0
KPG1 120706Z 03007KT 06/M06 A3029 RMK A01 T00631059  RH  041%=      5-min Rain = 0
KPG1 120707Z 03007KT 06/M06 A3029 RMK A01 T00641059  RH  041%=      5-min Rain = 0
KPG1 120708Z 04007KT 06/M06 A3029 RMK A01 T00641059  RH  041%=      5-min Rain = 0
KPG1 120709Z 04007KT 06/M06 A3029 RMK A01 T00641059  RH  041%=      5-min Rain = 0
KPG1 120710Z 05006KT 06/M06 A3029 RMK A01 T00621060  RH  041%=      5-min Rain = 0
KPG1 120711Z 04006KT 06/M06 A3029 RMK A01 T00631059  RH  041%=      5-min Rain = 0
KPG1 120712Z 03006KT 06/M06 A3029 RMK A01 T00641059  RH  041%=      5-min Rain = 0
KPG1 120713Z 03006KT 07/M06 A3029 RMK A01 T00651059  RH  041%=      5-min Rain = 0
KPG1 120714Z 04006KT 07/M06 A3029 RMK A01 T00661059  RH  040%=      5-min Rain = 0
KPG1 120715Z 05005KT 07/M06 A3029 RMK A01 T00661059  RH  040%=      5-min Rain = 0
KPG1 120716Z 04005KT 07/M06 A3029 RMK A01 T00671059  RH  040%=      5-min Rain = 0
KPG1 120717Z 04005KT 07/M06 A3029 RMK A01 T00671059  RH  040%=      5-min Rain = 0
KPG1 120718Z 04005KT 07/M06 A3029 RMK A01 T00671059  RH  040%=      5-min Rain = 0
KPG1 120719Z 04006KT 07/M06 A3029 RMK A01 T00671059  RH  040%=      5-min Rain = 0
KPG1 120720Z 04006KT 07/M06 A3029 RMK A01 T00661060  RH  040%=      5-min Rain = 0
KPG1 120721Z 04006KT 07/M06 A3029 RMK A01 T00651060  RH  040%=      5-min Rain = 0
KPG1 120722Z 04006KT 06/M06 A3029 RMK A01 T00641061  RH  041%=      5-min Rain = 0
KPG1 120723Z 05005KT 06/M06 A3029 RMK A01 T00621061  RH  041%=      5-min Rain = 0
KPG1 120724Z 06003KT 06/M06 A3029 RMK A01 T00611061  RH  041%=      5-min Rain = 0
KPG1 120725Z 07002KT 06/M06 A3029 RMK A01 T00591061  RH  042%=      5-min Rain = 0
KPG1 120726Z 06003KT 06/M06 A3029 RMK A01 T00581061  RH  042%=      5-min Rain = 0
KPG1 120727Z 05004KT 06/M06 A3029 RMK A01 T00581060  RH  042%=      5-min Rain = 0
KPG1 120728Z 05004KT 06/M06 A3029 RMK A01 T00601059  RH  042%=      5-min Rain = 0
KPG1 120729Z 08003KT 06/M06 A3029 RMK A01 T00611059  RH  042%=      5-min Rain = 0
KPG1 120730Z 09002KT 06/M06 A3029 RMK A01 T00611059  RH  042%=      5-min Rain = 0
KPG1 120731Z 08002KT 06/M06 A3029 RMK A01 T00611059  RH  042%=      5-min Rain = 0
KPG1 120732Z 06003KT 06/M06 A3029 RMK A01 T00611059  RH  042%=      5-min Rain = 0
KPG1 120733Z 07003KT 06/M06 A3029 RMK A01 T00621059  RH  042%=      5-min Rain = 0
KPG1 120734Z 07003KT 06/M06 A3029 RMK A01 T00631059  RH  041%=      5-min Rain = 0
KPG1 120735Z 06004KT 06/M06 A3029 RMK A01 T00641059  RH  041%=      5-min Rain = 0
KPG1 120736Z 05003KT 06/M06 A3029 RMK A01 T00631059  RH  041%=      5-min Rain = 0
KPG1 120737Z 05003KT 06/M06 A3029 RMK A01 T00631059  RH  041%=      5-min Rain = 0
KPG1 120738Z 06004KT 06/M06 A3029 RMK A01 T00641059  RH  041%=      5-min Rain = 0
KPG1 120739Z 06004KT 07/M06 A3029 RMK A01 T00651058  RH  041%=      5-min Rain = 0
KPG1 120740Z 06004KT 07/M06 A3029 RMK A01 T00661059  RH  041%=      5-min Rain = 0
KPG1 120741Z 06004KT 07/M06 A3029 RMK A01 T00651059  RH  041%=      5-min Rain = 0
KPG1 120742Z 06004KT 07/M06 A3029 RMK A01 T00651059  RH  041%=      5-min Rain = 0
KPG1 120743Z 05004KT 06/M06 A3029 RMK A01 T00631060  RH  041%=      5-min Rain = 0
KPG1 120744Z 05004KT 06/M06 A3029 RMK A01 T00611061  RH  041%=      5-min Rain = 0
KPG1 120745Z 05005KT 06/M06 A3029 RMK A01 T00591061  RH  042%=      5-min Rain = 0
KPG1 120746Z 06004KT 06/M06 A3029 RMK A01 T00581060  RH  042%=      5-min Rain = 0
KPG1 120747Z 05004KT 06/M06 A3029 RMK A01 T00591060  RH  042%=      5-min Rain = 0
KPG1 120748Z 05003KT 06/M06 A3029 RMK A01 T00571061  RH  042%=      5-min Rain = 0
KPG1 120749Z 05003KT 05/M06 A3029 RMK A01 T00541062  RH  043%=      5-min Rain = 0
KPG1 120750Z 05003KT 05/M06 A3029 RMK A01 T00521061  RH  044%=      5-min Rain = 0
KPG1 120751Z 05003KT 05/M06 A3029 RMK A01 T00521061  RH  044%=      5-min Rain = 0
KPG1 120752Z 03002KT 05/M06 A3029 RMK A01 T00541060  RH  044%=      5-min Rain = 0
KPG1 120753Z 03002KT 06/M06 A3029 RMK A01 T00561059  RH  043%=      5-min Rain = 0
KPG1 120754Z 03001KT 06/M06 A3029 RMK A01 T00581060  RH  043%=      5-min Rain = 0
KPG1 120755Z 06001KT 06/M06 A3029 RMK A01 T00591059  RH  042%=      5-min Rain = 0
KPG1 120756Z 11001KT 06/M06 A3029 RMK A01 T00601059  RH  042%=      5-min Rain = 0
KPG1 120757Z 12002KT 06/M06 A3029 RMK A01 T00601059  RH  042%=      5-min Rain = 0
KPG1 120758Z 15001KT 06/M06 A3029 RMK A01 T00601059  RH  042%=      5-min Rain = 0
KPG1 120759Z 18001KT 06/M06 A3029 RMK A01 T00601060  RH  042%=      5-min Rain = 0
KPG1 120800Z 18002KT 06/M06 A3029 RMK A01 T00611060  RH  041%=      5-min Rain = 0
KPG1 120801Z 17002KT 06/M06 A3029 RMK A01 T00611060  RH  041%=      5-min Rain = 0
KPG1 120802Z 17002KT 06/M06 A3029 RMK A01 T00621060  RH  041%=      5-min Rain = 0
KPG1 120803Z 16003KT 06/M06 A3029 RMK A01 T00611061  RH  041%=      5-min Rain = 0
KPG1 120804Z 16002KT 06/M06 A3029 RMK A01 T00601060  RH  042%=      5-min Rain = 0
KPG1 120805Z 16002KT 06/M06 A3029 RMK A01 T00581060  RH  042%=      5-min Rain = 0
KPG1 120806Z 17002KT 06/M06 A3029 RMK A01 T00571061  RH  043%=      5-min Rain = 0
KPG1 120807Z 19001KT 06/M06 A3029 RMK A01 T00561060  RH  043%=      5-min Rain = 0
KPG1 120808Z 23001KT 05/M06 A3029 RMK A01 T00541061  RH  043%=      5-min Rain = 0
KPG1 120809Z 22000KT 05/M06 A3029 RMK A01 T00531060  RH  044%=      5-min Rain = 0
KPG1 120810Z 23000KT 05/M06 A3029 RMK A01 T00531060  RH  044%=      5-min Rain = 0
KPG1 120811Z 18000KT 05/M06 A3029 RMK A01 T00521061  RH  044%=      5-min Rain = 0
KPG1 120812Z 17001KT 05/M06 A3029 RMK A01 T00521061  RH  044%=      5-min Rain = 0
KPG1 120813Z 16000KT 05/M06 A3029 RMK A01 T00531060  RH  044%=      5-min Rain = 0
KPG1 120814Z 17000KT 05/M06 A3029 RMK A01 T00541060  RH  043%=      5-min Rain = 0
KPG1 120815Z 17000KT 05/M06 A3029 RMK A01 T00541061  RH  043%=      5-min Rain = 0
KPG1 120816Z 00000KT 05/M06 A3029 RMK A01 T00491062  RH  044%=      5-min Rain = 0
KPG1 120817Z 00000KT 05/M06 A3029 RMK A01 T00481062  RH  045%=      5-min Rain = 0
KPG1 120818Z 06000KT 05/M06 A3029 RMK A01 T00481061  RH  045%=      5-min Rain = 0
KPG1 120819Z 06000KT 05/M06 A3029 RMK A01 T00481060  RH  045%=      5-min Rain = 0
KPG1 120820Z 06000KT 05/M06 A3029 RMK A01 T00481060  RH  045%=      5-min Rain = 0
KPG1 120821Z 06000KT 05/M06 A3029 RMK A01 T00491060  RH  045%=      5-min Rain = 0
KPG1 120822Z 06000KT 05/M06 A3029 RMK A01 T00501059  RH  045%=      5-min Rain = 0
KPG1 120823Z 05000KT 05/M06 A3029 RMK A01 T00491060  RH  045%=      5-min Rain = 0
KPG1 120824Z 04001KT 05/M06 A3029 RMK A01 T00451062  RH  046%=      5-min Rain = 0
KPG1 120825Z 04001KT 04/M06 A3029 RMK A01 T00421062  RH  047%=      5-min Rain = 0
KPG1 120826Z 02002KT 04/M06 A3029 RMK A01 T00391062  RH  047%=      5-min Rain = 0
KPG1 120827Z 02002KT 04/M06 A3029 RMK A01 T00371062  RH  048%=      5-min Rain = 0
KPG1 120828Z 01002KT 04/M06 A3029 RMK A01 T00361062  RH  049%=      5-min Rain = 0
KPG1 120829Z 01002KT 04/M06 A3029 RMK A01 T00351062  RH  049%=      5-min Rain = 0
KPG1 120830Z 01002KT 03/M06 A3029 RMK A01 T00341061  RH  050%=      5-min Rain = 0
KPG1 120831Z 03002KT 03/M06 A3029 RMK A01 T00341061  RH  050%=      5-min Rain = 0
KPG1 120832Z 03002KT 04/M06 A3028 RMK A01 T00351060  RH  050%=      5-min Rain = 0
KPG1 120833Z 03002KT 04/M06 A3028 RMK A01 T00351060  RH  050%=      5-min Rain = 0
KPG1 120834Z 03002KT 04/M06 A3028 RMK A01 T00361060  RH  050%=      5-min Rain = 0
KPG1 120835Z 02002KT 04/M06 A3028 RMK A01 T00361060  RH  050%=      5-min Rain = 0
KPG1 120836Z 03002KT 04/M06 A3028 RMK A01 T00351060  RH  050%=      5-min Rain = 0
KPG1 120837Z 03002KT 04/M06 A3028 RMK A01 T00351059  RH  050%=      5-min Rain = 0
KPG1 120838Z 04001KT 04/M06 A3029 RMK A01 T00381059  RH  049%=      5-min Rain = 0
KPG1 120839Z 03002KT 04/M06 A3029 RMK A01 T00391059  RH  049%=      5-min Rain = 0
KPG1 120840Z 04002KT 04/M06 A3029 RMK A01 T00411059  RH  048%=      5-min Rain = 0
KPG1 120841Z 05002KT 04/M06 A3029 RMK A01 T00411059  RH  048%=      5-min Rain = 0
KPG1 120842Z 06003KT 04/M06 A3029 RMK A01 T00371062  RH  048%=      5-min Rain = 0
KPG1 120843Z 06003KT 03/M07 A3029 RMK A01 T00301065  RH  050%=      5-min Rain = 0
KPG1 120844Z 06003KT 03/M06 A3029 RMK A01 T00261064  RH  051%=      5-min Rain = 0
KPG1 120845Z 05003KT 02/M06 A3029 RMK A01 T00231064  RH  052%=      5-min Rain = 0
KPG1 120846Z 05003KT 02/M06 A3029 RMK A01 T00221063  RH  053%=      5-min Rain = 0
KPG1 120847Z 05003KT 02/M06 A3029 RMK A01 T00231062  RH  054%=      5-min Rain = 0
KPG1 120848Z 06003KT 03/M06 A3029 RMK A01 T00251060  RH  054%=      5-min Rain = 0
KPG1 120849Z 06003KT 03/M06 A3029 RMK A01 T00291058  RH  053%=      5-min Rain = 0
KPG1 120850Z 05003KT 03/M06 A3029 RMK A01 T00341057  RH  051%=      5-min Rain = 0
KPG1 120851Z 05003KT 04/M06 A3029 RMK A01 T00371057  RH  050%=      5-min Rain = 0
KPG1 120852Z 06003KT 04/M06 A3029 RMK A01 T00381058  RH  049%=      5-min Rain = 0
KPG1 120853Z 06003KT 04/M06 A3029 RMK A01 T00401058  RH  049%=      5-min Rain = 0
KPG1 120854Z 05003KT 04/M06 A3029 RMK A01 T00411059  RH  048%=      5-min Rain = 0
KPG1 120855Z 05002KT 04/M06 A3029 RMK A01 T00391060  RH  048%=      5-min Rain = 0
KPG1 120856Z 04002KT 04/M06 A3029 RMK A01 T00391060  RH  049%=      5-min Rain = 0
KPG1 120857Z 04002KT 04/M06 A3029 RMK A01 T00351062  RH  049%=      5-min Rain = 0
KPG1 120858Z 04002KT 03/M06 A3029 RMK A01 T00321062  RH  050%=      5-min Rain = 0
KPG1 120859Z 04002KT 03/M06 A3029 RMK A01 T00321062  RH  050%=      5-min Rain = 0
KPG1 120900Z 04001KT 04/M06 A3029 RMK A01 T00361059  RH  050%=      5-min Rain = 0
KPG1 120901Z 06001KT 04/M06 A3029 RMK A01 T00421056  RH  049%=      5-min Rain = 0
KPG1 120902Z 06001KT 05/M06 A3029 RMK A01 T00471056  RH  047%=      5-min Rain = 0
KPG1 120903Z 06002KT 05/M06 A3029 RMK A01 T00471058  RH  046%=      5-min Rain = 0
KPG1 120904Z 07002KT 04/M06 A3029 RMK A01 T00381064  RH  047%=      5-min Rain = 0
KPG1 120905Z 07002KT 03/M06 A3029 RMK A01 T00331064  RH  049%=      5-min Rain = 0
KPG1 120906Z 06002KT 03/M06 A3029 RMK A01 T00321063  RH  050%=      5-min Rain = 0
KPG1 120907Z 06001KT 03/M06 A3029 RMK A01 T00321062  RH  050%=      5-min Rain = 0
KPG1 120908Z 05002KT 03/M06 A3029 RMK A01 T00331061  RH  050%=      5-min Rain = 0
KPG1 120909Z 03002KT 04/M06 A3029 RMK A01 T00361060  RH  049%=      5-min Rain = 0
KPG1 120910Z 04002KT 04/M06 A3029 RMK A01 T00381060  RH  049%=      5-min Rain = 0
KPG1 120911Z 04002KT 04/M06 A3029 RMK A01 T00361062  RH  049%=      5-min Rain = 0
KPG1 120912Z 03002KT 03/M07 A3028 RMK A01 T00291065  RH  050%=      5-min Rain = 0
KPG1 120913Z 03002KT 03/M07 A3028 RMK A01 T00251065  RH  052%=      5-min Rain = 0
KPG1 120914Z 03002KT 03/M06 A3028 RMK A01 T00251063  RH  052%=      5-min Rain = 0
KPG1 120915Z 05002KT 02/M06 A3028 RMK A01 T00241063  RH  053%=      5-min Rain = 0
KPG1 120916Z 04002KT 03/M06 A3028 RMK A01 T00251061  RH  053%=      5-min Rain = 0
KPG1 120917Z 03002KT 03/M06 A3028 RMK A01 T00281060  RH  052%=      5-min Rain = 0
KPG1 120918Z 03002KT 03/M06 A3028 RMK A01 T00291060  RH  052%=      5-min Rain = 0
KPG1 120919Z 03001KT 03/M06 A3028 RMK A01 T00311060  RH  051%=      5-min Rain = 0
KPG1 120920Z 07001KT 03/M06 A3028 RMK A01 T00331060  RH  050%=      5-min Rain = 0
KPG1 120921Z 07001KT 04/M06 A3028 RMK A01 T00351060  RH  050%=      5-min Rain = 0
KPG1 120922Z 06000KT 03/M06 A3028 RMK A01 T00331061  RH  050%=      5-min Rain = 0
KPG1 120923Z 00000KT 03/M06 A3028 RMK A01 T00301061  RH  051%=      5-min Rain = 0
KPG1 120924Z 00000KT 03/M06 A3028 RMK A01 T00271062  RH  052%=      5-min Rain = 0
KPG1 120925Z 00000KT 03/M06 A3028 RMK A01 T00261062  RH  052%=      5-min Rain = 0
KPG1 120926Z 00000KT 02/M06 A3028 RMK A01 T00241062  RH  053%=      5-min Rain = 0
KPG1 120927Z 05000KT 02/M06 A3028 RMK A01 T00211062  RH  054%=      5-min Rain = 0
KPG1 120928Z 21002KT 02/M06 A3028 RMK A01 T00191063  RH  055%=      5-min Rain = 0
KPG1 120929Z 21002KT 02/M06 A3028 RMK A01 T00181062  RH  055%=      5-min Rain = 0
KPG1 120930Z 22002KT 02/M06 A3028 RMK A01 T00171062  RH  056%=      5-min Rain = 0
KPG1 120931Z 21001KT 02/M06 A3028 RMK A01 T00161062  RH  056%=      5-min Rain = 0
KPG1 120932Z 21002KT 02/M06 A3028 RMK A01 T00171062  RH  056%=      5-min Rain = 0
KPG1 120933Z 22002KT 02/M06 A3028 RMK A01 T00171062  RH  056%=      5-min Rain = 0
KPG1 120934Z 23001KT 02/M06 A3028 RMK A01 T00171061  RH  056%=      5-min Rain = 0
KPG1 120935Z 21001KT 02/M06 A3028 RMK A01 T00171061  RH  056%=      5-min Rain = 0
KPG1 120936Z 23002KT 02/M06 A3028 RMK A01 T00181061  RH  056%=      5-min Rain = 0
KPG1 120937Z 24001KT 02/M06 A3028 RMK A01 T00191061  RH  056%=      5-min Rain = 0
KPG1 120938Z 25001KT 02/M06 A3028 RMK A01 T00201060  RH  055%=      5-min Rain = 0
KPG1 120939Z 24001KT 02/M06 A3028 RMK A01 T00211060  RH  055%=      5-min Rain = 0
KPG1 120940Z 26000KT 02/M06 A3028 RMK A01 T00221060  RH  055%=      5-min Rain = 0
KPG1 120941Z 00000KT 02/M06 A3027 RMK A01 T00231060  RH  054%=      5-min Rain = 0
KPG1 120942Z 00000KT 02/M06 A3027 RMK A01 T00221060  RH  054%=      5-min Rain = 0
KPG1 120943Z 00000KT 02/M06 A3027 RMK A01 T00191063  RH  054%=      5-min Rain = 0
KPG1 120944Z 00000KT 02/M07 A3027 RMK A01 T00151065  RH  055%=      5-min Rain = 0
KPG1 120945Z 04001KT 01/M07 A3027 RMK A01 T00111065  RH  057%=      5-min Rain = 0
KPG1 120946Z 04002KT 01/M07 A3027 RMK A01 T00091065  RH  058%=      5-min Rain = 0
KPG1 120947Z 04002KT 01/M07 A3028 RMK A01 T00071065  RH  059%=      5-min Rain = 0
KPG1 120948Z 04002KT 01/M06 A3028 RMK A01 T00071063  RH  059%=      5-min Rain = 0
KPG1 120949Z 04002KT 01/M06 A3028 RMK A01 T00081062  RH  060%=      5-min Rain = 0
KPG1 120950Z 04001KT 01/M06 A3028 RMK A01 T00101061  RH  059%=      5-min Rain = 0
KPG1 120951Z 04000KT 01/M06 A3028 RMK A01 T00111060  RH  059%=      5-min Rain = 0
KPG1 120952Z 21000KT 01/M06 A3028 RMK A01 T00121060  RH  058%=      5-min Rain = 0
KPG1 120953Z 00000KT 01/M06 A3028 RMK A01 T00131060  RH  058%=      5-min Rain = 0
KPG1 120954Z 13000KT 01/M06 A3028 RMK A01 T00141060  RH  058%=      5-min Rain = 0
KPG1 120955Z 13000KT 02/M06 A3028 RMK A01 T00151060  RH  057%=      5-min Rain = 0
KPG1 120956Z 13000KT 02/M06 A3028 RMK A01 T00171059  RH  057%=      5-min Rain = 0
KPG1 120957Z 00000KT 02/M06 A3028 RMK A01 T00181059  RH  056%=      5-min Rain = 0
KPG1 120958Z 00000KT 02/M06 A3028 RMK A01 T00201059  RH  056%=      5-min Rain = 0
KPG1 120959Z 00000KT 02/M06 A3028 RMK A01 T00201059  RH  056%=      5-min Rain = 0
KPG1 121000Z 00000KT 02/M06 A3028 RMK A01 T00221058  RH  055%=      5-min Rain = 0
KPG1 121001Z 00000KT 02/M06 A3028 RMK A01 T00241058  RH  055%=      5-min Rain = 0
KPG1 121002Z 22001KT 03/M06 A3028 RMK A01 T00251058  RH  054%=      5-min Rain = 0
KPG1 121003Z 23002KT 02/M06 A3028 RMK A01 T00241059  RH  054%=      5-min Rain = 0
KPG1 121004Z 24003KT 02/M06 A3028 RMK A01 T00241059  RH  054%=      5-min Rain = 0
KPG1 121005Z 23003KT 02/M06 A3028 RMK A01 T00221060  RH  054%=      5-min Rain = 0
KPG1 121006Z 22004KT 02/M06 A3028 RMK A01 T00191061  RH  055%=      5-min Rain = 0
KPG1 121007Z 21003KT 02/M06 A3028 RMK A01 T00161062  RH  056%=      5-min Rain = 0
KPG1 121008Z 21002KT 01/M06 A3028 RMK A01 T00141062  RH  057%=      5-min Rain = 0
KPG1 121009Z 21002KT 01/M06 A3028 RMK A01 T00131061  RH  058%=      5-min Rain = 0
KPG1 121010Z 23001KT 01/M06 A3028 RMK A01 T00131061  RH  058%=      5-min Rain = 0
KPG1 121011Z 24002KT 01/M06 A3028 RMK A01 T00131061  RH  058%=      5-min Rain = 0
KPG1 121012Z 25001KT 01/M06 A3028 RMK A01 T00131060  RH  058%=      5-min Rain = 0
KPG1 121013Z 28001KT 01/M06 A3028 RMK A01 T00141060  RH  058%=      5-min Rain = 0
KPG1 121014Z 21000KT 02/M06 A3028 RMK A01 T00151060  RH  057%=      5-min Rain = 0
KPG1 121015Z 26001KT 02/M06 A3028 RMK A01 T00161059  RH  057%=      5-min Rain = 0
KPG1 121016Z 34000KT 02/M06 A3028 RMK A01 T00171059  RH  057%=      5-min Rain = 0
KPG1 121017Z 00000KT 02/M06 A3028 RMK A01 T00181059  RH  057%=      5-min Rain = 0
KPG1 121018Z 07001KT 02/M06 A3028 RMK A01 T00181060  RH  057%=      5-min Rain = 0
KPG1 121019Z 07001KT 02/M06 A3028 RMK A01 T00171060  RH  057%=      5-min Rain = 0
KPG1 121020Z 00000KT 01/M06 A3028 RMK A01 T00131063  RH  057%=      5-min Rain = 0
KPG1 121021Z 00000KT 01/M07 A3028 RMK A01 T00091065  RH  058%=      5-min Rain = 0
KPG1 121022Z 00000KT 01/M06 A3028 RMK A01 T00071064  RH  059%=      5-min Rain = 0
KPG1 121023Z 00000KT 01/M06 A3028 RMK A01 T00061063  RH  060%=      5-min Rain = 0
KPG1 121024Z 00000KT 01/M06 A3028 RMK A01 T00071062  RH  060%=      5-min Rain = 0
KPG1 121025Z 00000KT 01/M06 A3028 RMK A01 T00061062  RH  060%=      5-min Rain = 0
KPG1 121026Z 00000KT 01/M06 A3028 RMK A01 T00061062  RH  060%=      5-min Rain = 0
KPG1 121027Z 00000KT 01/M06 A3028 RMK A01 T00051063  RH  060%=      5-min Rain = 0
KPG1 121028Z 00000KT 00/M06 A3028 RMK A01 T00041063  RH  061%=      5-min Rain = 0
KPG1 121029Z 31000KT 00/M06 A3028 RMK A01 T00041062  RH  061%=      5-min Rain = 0
KPG1 121030Z 34000KT 01/M06 A3028 RMK A01 T00051061  RH  061%=      5-min Rain = 0
KPG1 121031Z 34001KT 01/M06 A3028 RMK A01 T00061060  RH  061%=      5-min Rain = 0
KPG1 121032Z 34000KT 01/M06 A3028 RMK A01 T00071060  RH  061%=      5-min Rain = 0
KPG1 121033Z 34001KT 01/M06 A3028 RMK A01 T00071061  RH  061%=      5-min Rain = 0
KPG1 121034Z 34001KT 01/M06 A3028 RMK A01 T00071061  RH  061%=      5-min Rain = 0
KPG1 121035Z 32000KT 01/M06 A3028 RMK A01 T00081060  RH  060%=      5-min Rain = 0
KPG1 121036Z 00000KT 01/M06 A3028 RMK A01 T00091059  RH  060%=      5-min Rain = 0
KPG1 121037Z 03000KT 01/M06 A3028 RMK A01 T00111059  RH  060%=      5-min Rain = 0
KPG1 121038Z 03001KT 01/M06 A3028 RMK A01 T00121059  RH  059%=      5-min Rain = 0
KPG1 121039Z 03001KT 01/M06 A3028 RMK A01 T00081064  RH  059%=      5-min Rain = 0
KPG1 121040Z 04001KT 00/M07 A3028 RMK A01 T00031066  RH  060%=      5-min Rain = 0
KPG1 121041Z 04001KT 00/07 A3028 RMK A01 T00-00-66  RH  061%=      5-min Rain = 0
KPG1 121042Z 05001KT M00/M07 A3028 RMK A01 T10011065  RH  062%=      5-min Rain = 0
KPG1 121043Z 05001KT M00/M06 A3028 RMK A01 T10021064  RH  063%=      5-min Rain = 0
KPG1 121044Z 05001KT M00/M06 A3028 RMK A01 T10021063  RH  063%=      5-min Rain = 0
KPG1 121045Z 04001KT M00/M06 A3028 RMK A01 T10021062  RH  064%=      5-min Rain = 0
KPG1 121046Z 04000KT 00/06 A3028 RMK A01 T00000-60  RH  064%=      5-min Rain = 0
KPG1 121047Z 00000KT 00/M06 A3028 RMK A01 T00031059  RH  063%=      5-min Rain = 0
KPG1 121048Z 00000KT 01/M06 A3028 RMK A01 T00051058  RH  062%=      5-min Rain = 0
KPG1 121049Z 00000KT 01/M06 A3028 RMK A01 T00081057  RH  062%=      5-min Rain = 0
KPG1 121050Z 00000KT 01/M06 A3028 RMK A01 T00111057  RH  061%=      5-min Rain = 0
KPG1 121051Z 00000KT 01/M06 A3028 RMK A01 T00141056  RH  060%=      5-min Rain = 0
KPG1 121052Z 28000KT 02/M06 A3028 RMK A01 T00151056  RH  059%=      5-min Rain = 0
KPG1 121053Z 27001KT 02/M06 A3028 RMK A01 T00171057  RH  058%=      5-min Rain = 0
KPG1 121054Z 25002KT 02/M06 A3028 RMK A01 T00181056  RH  058%=      5-min Rain = 0
KPG1 121055Z 25001KT 02/M06 A3028 RMK A01 T00191057  RH  057%=      5-min Rain = 0
KPG1 121056Z 25001KT 02/M06 A3028 RMK A01 T00201057  RH  057%=      5-min Rain = 0
KPG1 121057Z 25001KT 02/M06 A3028 RMK A01 T00201058  RH  056%=      5-min Rain = 0
KPG1 121058Z 25001KT 02/M06 A3028 RMK A01 T00191058  RH  057%=      5-min Rain = 0
KPG1 121059Z 25001KT 02/M06 A3028 RMK A01 T00181059  RH  057%=      5-min Rain = 0
KPG1 121100Z 25001KT 02/M06 A3028 RMK A01 T00161060  RH  057%=      5-min Rain = 0
KPG1 121101Z 25001KT 02/M06 A3028 RMK A01 T00151061  RH  057%=      5-min Rain = 0
KPG1 121102Z 25001KT 01/M06 A3028 RMK A01 T00131061  RH  058%=      5-min Rain = 0
KPG1 121103Z 25001KT 01/M06 A3028 RMK A01 T00111062  RH  058%=      5-min Rain = 0
KPG1 121104Z 25001KT 01/M06 A3028 RMK A01 T00101061  RH  059%=      5-min Rain = 0
KPG1 121105Z 25000KT 01/M06 A3028 RMK A01 T00101061  RH  059%=      5-min Rain = 0
KPG1 121106Z 00000KT 01/M06 A3028 RMK A01 T00101060  RH  059%=      5-min Rain = 0
KPG1 121107Z 00000KT 01/M06 A3028 RMK A01 T00101060  RH  060%=      5-min Rain = 0
KPG1 121108Z 00000KT 01/M06 A3028 RMK A01 T00111059  RH  060%=      5-min Rain = 0
KPG1 121109Z 00000KT 01/M06 A3028 RMK A01 T00111060  RH  059%=      5-min Rain = 0
KPG1 121110Z 00000KT 01/M06 A3028 RMK A01 T00071064  RH  059%=      5-min Rain = 0
KPG1 121111Z 00000KT 00/M06 A3028 RMK A01 T00041064  RH  060%=      5-min Rain = 0
KPG1 121112Z 00000KT 00/M06 A3028 RMK A01 T00031063  RH  061%=      5-min Rain = 0
KPG1 121113Z 00000KT 00/M06 A3028 RMK A01 T00021063  RH  062%=      5-min Rain = 0
KPG1 121114Z 00000KT 00/M06 A3028 RMK A01 T00021062  RH  062%=      5-min Rain = 0
KPG1 121115Z 00000KT 00/M06 A3028 RMK A01 T00021062  RH  062%=      5-min Rain = 0
KPG1 121116Z 00000KT 00/M06 A3028 RMK A01 T00031061  RH  062%=      5-min Rain = 0
KPG1 121117Z 00000KT 00/M06 A3028 RMK A01 T00041060  RH  062%=      5-min Rain = 0
KPG1 121118Z 00000KT 01/M06 A3028 RMK A01 T00061059  RH  062%=      5-min Rain = 0
KPG1 121119Z 00000KT 01/M06 A3028 RMK A01 T00081058  RH  061%=      5-min Rain = 0
KPG1 121120Z 00000KT 01/M06 A3028 RMK A01 T00101058  RH  061%=      5-min Rain = 0
KPG1 121121Z 11000KT 01/M06 A3028 RMK A01 T00111058  RH  060%=      5-min Rain = 0
KPG1 121122Z 14000KT 01/M06 A3028 RMK A01 T00121058  RH  059%=      5-min Rain = 0
KPG1 121123Z 19000KT 01/M06 A3028 RMK A01 T00131058  RH  059%=      5-min Rain = 0
KPG1 121124Z 16000KT 01/M06 A3028 RMK A01 T00131058  RH  059%=      5-min Rain = 0
KPG1 121125Z 16001KT 01/M06 A3028 RMK A01 T00131058  RH  059%=      5-min Rain = 0
KPG1 121126Z 16002KT 01/M06 A3028 RMK A01 T00131059  RH  059%=      5-min Rain = 0
KPG1 121127Z 18003KT 01/M06 A3028 RMK A01 T00111060  RH  059%=      5-min Rain = 0
KPG1 121128Z 18003KT 01/M06 A3028 RMK A01 T00101060  RH  059%=      5-min Rain = 0
KPG1 121129Z 19002KT 01/M06 A3028 RMK A01 T00091061  RH  060%=      5-min Rain = 0
KPG1 121130Z 20002KT 01/M06 A3028 RMK A01 T00081061  RH  060%=      5-min Rain = 0
KPG1 121131Z 21002KT 01/M06 A3028 RMK A01 T00061061  RH  060%=      5-min Rain = 0
KPG1 121132Z 22002KT 01/M06 A3028 RMK A01 T00051061  RH  061%=      5-min Rain = 0
KPG1 121133Z 24002KT 01/M06 A3028 RMK A01 T00051061  RH  061%=      5-min Rain = 0
KPG1 121134Z 25002KT 01/M06 A3028 RMK A01 T00051060  RH  061%=      5-min Rain = 0
KPG1 121135Z 27002KT 01/M06 A3028 RMK A01 T00061059  RH  061%=      5-min Rain = 0
KPG1 121136Z 26002KT 01/M06 A3028 RMK A01 T00081058  RH  061%=      5-min Rain = 0
KPG1 121137Z 25002KT 01/M06 A3027 RMK A01 T00091059  RH  060%=      5-min Rain = 0
KPG1 121138Z 24003KT 01/M06 A3027 RMK A01 T00101058  RH  060%=      5-min Rain = 0
KPG1 121139Z 23003KT 01/M06 A3027 RMK A01 T00111058  RH  060%=      5-min Rain = 0
KPG1 121140Z 22003KT 01/M06 A3027 RMK A01 T00101059  RH  060%=      5-min Rain = 0
KPG1 121141Z 21003KT 01/M06 A3027 RMK A01 T00091059  RH  060%=      5-min Rain = 0
KPG1 121142Z 23003KT 01/M06 A3027 RMK A01 T00091059  RH  060%=      5-min Rain = 0
KPG1 121143Z 23003KT 01/M06 A3027 RMK A01 T00081060  RH  061%=      5-min Rain = 0
KPG1 121144Z 22003KT 01/M06 A3027 RMK A01 T00071060  RH  061%=      5-min Rain = 0
KPG1 121145Z 22002KT 01/M06 A3027 RMK A01 T00061060  RH  061%=      5-min Rain = 0
KPG1 121146Z 22003KT 01/M06 A3027 RMK A01 T00061060  RH  061%=      5-min Rain = 0
KPG1 121147Z 21003KT 01/M06 A3027 RMK A01 T00051061  RH  061%=      5-min Rain = 0
KPG1 121148Z 22003KT 00/M06 A3027 RMK A01 T00041061  RH  062%=      5-min Rain = 0
KPG1 121149Z 21004KT 00/M06 A3027 RMK A01 T00021062  RH  062%=      5-min Rain = 0
KPG1 121150Z 21004KT 00/M06 A3027 RMK A01 T00011062  RH  063%=      5-min Rain = 0
KPG1 121151Z 22004KT 00/06 A3027 RMK A01 T00-00-62  RH  063%=      5-min Rain = 0
KPG1 121152Z 23003KT M00/M06 A3027 RMK A01 T10011062  RH  063%=      5-min Rain = 0
KPG1 121153Z 21002KT M00/M06 A3027 RMK A01 T10011062  RH  064%=      5-min Rain = 0
KPG1 121154Z 26003KT M00/M06 A3027 RMK A01 T10011062  RH  064%=      5-min Rain = 0
KPG1 121155Z 24003KT M00/M06 A3027 RMK A01 T10021062  RH  064%=      5-min Rain = 0
KPG1 121156Z 24003KT M00/M06 A3027 RMK A01 T10021062  RH  064%=      5-min Rain = 0
KPG1 121157Z 25002KT M00/M06 A3027 RMK A01 T10011061  RH  064%=      5-min Rain = 0
KPG1 121158Z 23003KT 00/06 A3028 RMK A01 T00-00-61  RH  064%=      5-min Rain = 0
KPG1 121159Z 22002KT 00/06 A3028 RMK A01 T00-00-61  RH  064%=      5-min Rain = 0
KPG1 121200Z 23002KT 00/06 A3028 RMK A01 T00000-61  RH  064%=      5-min Rain = 0
KPG1 121201Z 22002KT 00/M06 A3028 RMK A01 T00011061  RH  063%=      5-min Rain = 0
KPG1 121202Z 22001KT 00/M06 A3028 RMK A01 T00011061  RH  063%=      5-min Rain = 0
KPG1 121203Z 00000KT 00/M06 A3028 RMK A01 T00011061  RH  063%=      5-min Rain = 0
KPG1 121204Z 00000KT 00/M06 A3028 RMK A01 T00011061  RH  063%=      5-min Rain = 0
KPG1 121205Z 30000KT 00/M06 A3028 RMK A01 T00011061  RH  063%=      5-min Rain = 0
KPG1 121206Z 30000KT 00/M06 A3028 RMK A01 T00011061  RH  063%=      5-min Rain = 0
KPG1 121207Z 05001KT M00/M06 A3028 RMK A01 T10011063  RH  063%=      5-min Rain = 0
KPG1 121208Z 03001KT M00/M07 A3028 RMK A01 T10041065  RH  064%=      5-min Rain = 0
KPG1 121209Z 07001KT M01/M07 A3027 RMK A01 T10071066  RH  065%=      5-min Rain = 0
KPG1 121210Z 06001KT M01/M07 A3027 RMK A01 T10091065  RH  065%=      5-min Rain = 0
KPG1 121211Z 07002KT M01/M07 A3027 RMK A01 T10101065  RH  066%=      5-min Rain = 0
KPG1 121212Z 06002KT M01/M07 A3027 RMK A01 T10111065  RH  067%=      5-min Rain = 0
KPG1 121213Z 07001KT M01/M07 A3027 RMK A01 T10111065  RH  067%=      5-min Rain = 0
KPG1 121214Z 06001KT M01/M06 A3027 RMK A01 T10111064  RH  067%=      5-min Rain = 0
KPG1 121215Z 04000KT M01/M06 A3027 RMK A01 T10111063  RH  068%=      5-min Rain = 0
KPG1 121216Z 02000KT M01/M06 A3027 RMK A01 T10111064  RH  067%=      5-min Rain = 0
KPG1 121217Z 01000KT M01/M06 A3027 RMK A01 T10121064  RH  068%=      5-min Rain = 0
KPG1 121218Z 33000KT M01/M06 A3027 RMK A01 T10121063  RH  068%=      5-min Rain = 0
KPG1 121219Z 30000KT M01/M06 A3027 RMK A01 T10111063  RH  068%=      5-min Rain = 0
KPG1 121220Z 28001KT M01/M06 A3027 RMK A01 T10111062  RH  068%=      5-min Rain = 0
KPG1 121221Z 27002KT M01/M06 A3027 RMK A01 T10091062  RH  068%=      5-min Rain = 0
KPG1 121222Z 26002KT M01/M06 A3027 RMK A01 T10081061  RH  067%=      5-min Rain = 0
KPG1 121223Z 25002KT M01/M06 A3027 RMK A01 T10071061  RH  067%=      5-min Rain = 0
KPG1 121224Z 25002KT M01/M06 A3027 RMK A01 T10061060  RH  067%=      5-min Rain = 0
KPG1 121225Z 25002KT M01/M06 A3027 RMK A01 T10051060  RH  066%=      5-min Rain = 0
KPG1 121226Z 26002KT M01/M06 A3027 RMK A01 T10051061  RH  066%=      5-min Rain = 0
KPG1 121227Z 26001KT M00/M06 A3027 RMK A01 T10041061  RH  065%=      5-min Rain = 0
KPG1 121228Z 25000KT M01/M06 A3027 RMK A01 T10051063  RH  065%=      5-min Rain = 0
KPG1 121229Z 24000KT M01/M06 A3027 RMK A01 T10071064  RH  065%=      5-min Rain = 0
KPG1 121230Z 24001KT M01/M07 A3027 RMK A01 T10091066  RH  065%=      5-min Rain = 0
KPG1 121231Z 26001KT M01/M07 A3027 RMK A01 T10111066  RH  066%=      5-min Rain = 0
KPG1 121232Z 26001KT M01/M07 A3027 RMK A01 T10121065  RH  067%=      5-min Rain = 0
KPG1 121233Z 26001KT M01/M06 A3027 RMK A01 T10121064  RH  068%=      5-min Rain = 0
KPG1 121234Z 28001KT M01/M06 A3027 RMK A01 T10121064  RH  068%=      5-min Rain = 0
KPG1 121235Z 28001KT M01/M06 A3027 RMK A01 T10121064  RH  068%=      5-min Rain = 0
KPG1 121236Z 28000KT M01/M06 A3027 RMK A01 T10101062  RH  068%=      5-min Rain = 0
KPG1 121237Z 00000KT M01/M06 A3027 RMK A01 T10091061  RH  068%=      5-min Rain = 0
KPG1 121238Z 00000KT M01/M06 A3027 RMK A01 T10071060  RH  067%=      5-min Rain = 0
KPG1 121239Z 00000KT M01/M06 A3027 RMK A01 T10071062  RH  066%=      5-min Rain = 0
KPG1 121240Z 00000KT M01/M06 A3027 RMK A01 T10081063  RH  066%=      5-min Rain = 0
KPG1 121241Z 00000KT M01/M06 A3027 RMK A01 T10091064  RH  067%=      5-min Rain = 0
KPG1 121242Z 22001KT M01/M06 A3027 RMK A01 T10101064  RH  067%=      5-min Rain = 0
KPG1 121243Z 22001KT M01/M06 A3027 RMK A01 T10101062  RH  068%=      5-min Rain = 0
KPG1 121244Z 23000KT M01/M06 A3027 RMK A01 T10081061  RH  068%=      5-min Rain = 0
KPG1 121245Z 23001KT M01/M06 A3027 RMK A01 T10081061  RH  067%=      5-min Rain = 0
KPG1 121246Z 24001KT M01/M06 A3027 RMK A01 T10081061  RH  067%=      5-min Rain = 0
KPG1 121247Z 25002KT M01/M06 A3027 RMK A01 T10071060  RH  067%=      5-min Rain = 0
KPG1 121248Z 25002KT M01/M06 A3026 RMK A01 T10061060  RH  066%=      5-min Rain = 0
KPG1 121249Z 24003KT M01/M06 A3026 RMK A01 T10051061  RH  066%=      5-min Rain = 0
KPG1 121250Z 22003KT M01/M06 A3026 RMK A01 T10051061  RH  066%=      5-min Rain = 0
KPG1 121251Z 23003KT M01/M06 A3026 RMK A01 T10051061  RH  066%=      5-min Rain = 0
KPG1 121252Z 23004KT M01/M06 A3026 RMK A01 T10061062  RH  066%=      5-min Rain = 0
KPG1 121253Z 23004KT M01/M06 A3027 RMK A01 T10071062  RH  066%=      5-min Rain = 0
KPG1 121254Z 23004KT M01/M06 A3027 RMK A01 T10071061  RH  067%=      5-min Rain = 0
KPG1 121255Z 23004KT M01/M06 A3027 RMK A01 T10071061  RH  067%=      5-min Rain = 0
KPG1 121256Z 23003KT M01/M06 A3027 RMK A01 T10081061  RH  067%=      5-min Rain = 0
KPG1 121257Z 24003KT M01/M06 A3027 RMK A01 T10081061  RH  067%=      5-min Rain = 0
KPG1 121258Z 24003KT M01/M06 A3027 RMK A01 T10081061  RH  067%=      5-min Rain = 0
KPG1 121259Z 25002KT M01/M06 A3027 RMK A01 T10081061  RH  067%=      5-min Rain = 0
KPG1 121300Z 25003KT M01/M06 A3027 RMK A01 T10071060  RH  067%=      5-min Rain = 0
KPG1 121301Z 27003KT M01/M06 A3027 RMK A01 T10061060  RH  067%=      5-min Rain = 0
KPG1 121302Z 26002KT M01/M06 A3027 RMK A01 T10051060  RH  067%=      5-min Rain = 0
KPG1 121303Z 24003KT M01/M06 A3027 RMK A01 T10051059  RH  067%=      5-min Rain = 0
KPG1 121304Z 24002KT M00/M06 A3027 RMK A01 T10041060  RH  066%=      5-min Rain = 0
KPG1 121305Z 24002KT M00/M06 A3027 RMK A01 T10031059  RH  066%=      5-min Rain = 0
KPG1 121306Z 24001KT M00/M06 A3027 RMK A01 T10031059  RH  066%=      5-min Rain = 0
KPG1 121307Z 23002KT M00/M06 A3027 RMK A01 T10031059  RH  066%=      5-min Rain = 0
KPG1 121308Z 23002KT M00/M06 A3027 RMK A01 T10031060  RH  065%=      5-min Rain = 0
KPG1 121309Z 25002KT M00/M06 A3027 RMK A01 T10031060  RH  065%=      5-min Rain = 0
KPG1 121310Z 24001KT M00/M06 A3027 RMK A01 T10031060  RH  065%=      5-min Rain = 0
KPG1 121311Z 26002KT M00/M06 A3027 RMK A01 T10031060  RH  065%=      5-min Rain = 0
KPG1 121312Z 26001KT M00/M06 A3027 RMK A01 T10031060  RH  065%=      5-min Rain = 0
KPG1 121313Z 27000KT M00/M06 A3027 RMK A01 T10021060  RH  065%=      5-min Rain = 0
KPG1 121314Z 00000KT M00/M06 A3027 RMK A01 T10031061  RH  065%=      5-min Rain = 0
KPG1 121315Z 24000KT M01/M06 A3027 RMK A01 T10061064  RH  065%=      5-min Rain = 0
KPG1 121316Z 26001KT M01/M06 A3027 RMK A01 T10081064  RH  066%=      5-min Rain = 0
KPG1 121317Z 27000KT M01/M07 A3027 RMK A01 T10091065  RH  066%=      5-min Rain = 0
KPG1 121318Z 28001KT M01/M07 A3027 RMK A01 T10111065  RH  067%=      5-min Rain = 0
KPG1 121319Z 27001KT M01/M06 A3027 RMK A01 T10121064  RH  067%=      5-min Rain = 0
KPG1 121320Z 24001KT M01/M06 A3027 RMK A01 T10121064  RH  068%=      5-min Rain = 0
KPG1 121321Z 25001KT M01/M06 A3027 RMK A01 T10101061  RH  069%=      5-min Rain = 0
KPG1 121322Z 24000KT M01/M06 A3027 RMK A01 T10091061  RH  068%=      5-min Rain = 0
KPG1 121323Z 31000KT M01/M06 A3027 RMK A01 T10081061  RH  067%=      5-min Rain = 0
KPG1 121324Z 31000KT M01/M06 A3027 RMK A01 T10091062  RH  067%=      5-min Rain = 0
KPG1 121325Z 00000KT M01/M06 A3027 RMK A01 T10101064  RH  067%=      5-min Rain = 0
KPG1 121326Z 00000KT M01/M06 A3027 RMK A01 T10111064  RH  067%=      5-min Rain = 0
KPG1 121327Z 00000KT M01/M07 A3027 RMK A01 T10131065  RH  068%=      5-min Rain = 0
KPG1 121328Z 31000KT M01/M07 A3027 RMK A01 T10141065  RH  068%=      5-min Rain = 0
KPG1 121329Z 30000KT M01/M06 A3027 RMK A01 T10141064  RH  069%=      5-min Rain = 0
KPG1 121330Z 32000KT M01/M06 A3027 RMK A01 T10141063  RH  069%=      5-min Rain = 0
KPG1 121331Z 02000KT M01/M06 A3027 RMK A01 T10141063  RH  069%=      5-min Rain = 0
KPG1 121332Z 04001KT M01/M06 A3027 RMK A01 T10141063  RH  069%=      5-min Rain = 0
KPG1 121333Z 05001KT M01/M06 A3027 RMK A01 T10141063  RH  069%=      5-min Rain = 0
KPG1 121334Z 06002KT M01/M06 A3027 RMK A01 T10141063  RH  069%=      5-min Rain = 0
KPG1 121335Z 06002KT M01/M06 A3027 RMK A01 T10141063  RH  069%=      5-min Rain = 0
KPG1 121336Z 06001KT M01/M06 A3027 RMK A01 T10131062  RH  069%=      5-min Rain = 0
KPG1 121337Z 06001KT M01/M06 A3027 RMK A01 T10131062  RH  069%=      5-min Rain = 0
KPG1 121338Z 06001KT M01/M06 A3027 RMK A01 T10131062  RH  069%=      5-min Rain = 0
KPG1 121339Z 04001KT M01/M06 A3027 RMK A01 T10111061  RH  069%=      5-min Rain = 0
KPG1 121340Z 03001KT M01/M06 A3027 RMK A01 T10111061  RH  069%=      5-min Rain = 0
KPG1 121341Z 03001KT M01/M06 A3027 RMK A01 T10111062  RH  068%=      5-min Rain = 0
KPG1 121342Z 03001KT M01/M06 A3027 RMK A01 T10111062  RH  069%=      5-min Rain = 0
KPG1 121343Z 05000KT M01/M06 A3027 RMK A01 T10111061  RH  069%=      5-min Rain = 0
KPG1 121344Z 03000KT M01/M06 A3027 RMK A01 T10101061  RH  068%=      5-min Rain = 0
KPG1 121345Z 03001KT M01/M06 A3027 RMK A01 T10101061  RH  068%=      5-min Rain = 0
KPG1 121346Z 05001KT M01/M06 A3027 RMK A01 T10101061  RH  068%=      5-min Rain = 0
KPG1 121347Z 00000KT M01/M06 A3027 RMK A01 T10101061  RH  068%=      5-min Rain = 0
KPG1 121348Z 00000KT M01/M06 A3027 RMK A01 T10101061  RH  068%=      5-min Rain = 0
KPG1 121349Z 01000KT M01/M06 A3027 RMK A01 T10091061  RH  068%=      5-min Rain = 0
KPG1 121350Z 01000KT M01/M06 A3027 RMK A01 T10081061  RH  068%=      5-min Rain = 0
KPG1 121351Z 00000KT M01/M06 A3027 RMK A01 T10091062  RH  067%=      5-min Rain = 0
KPG1 121352Z 00000KT M01/M06 A3027 RMK A01 T10091062  RH  067%=      5-min Rain = 0
KPG1 121353Z 00000KT M01/M06 A3027 RMK A01 T10091060  RH  068%=      5-min Rain = 0
KPG1 121354Z 00000KT M01/M06 A3027 RMK A01 T10071059  RH  068%=      5-min Rain = 0
KPG1 121355Z 00000KT M01/M06 A3027 RMK A01 T10061059  RH  067%=      5-min Rain = 0
KPG1 121356Z 00000KT M01/M06 A3027 RMK A01 T10051059  RH  067%=      5-min Rain = 0
KPG1 121357Z 00000KT M01/M06 A3027 RMK A01 T10051060  RH  066%=      5-min Rain = 0
KPG1 121358Z 00000KT M01/M06 A3027 RMK A01 T10051060  RH  066%=      5-min Rain = 0
KPG1 121359Z 00000KT M01/M06 A3027 RMK A01 T10061061  RH  066%=      5-min Rain = 0
KPG1 121400Z 00000KT M01/M06 A3027 RMK A01 T10061061  RH  067%=      5-min Rain = 0
KPG1 121401Z 21000KT M01/M06 A3027 RMK A01 T10061060  RH  067%=      5-min Rain = 0
KPG1 121402Z 21000KT M01/M06 A3027 RMK A01 T10051060  RH  066%=      5-min Rain = 0
KPG1 121403Z 00000KT M01/M06 A3027 RMK A01 T10051060  RH  066%=      5-min Rain = 0
KPG1 121404Z 00000KT M01/M06 A3027 RMK A01 T10051060  RH  066%=      5-min Rain = 0
KPG1 121405Z 00000KT M01/M06 A3027 RMK A01 T10051060  RH  066%=      5-min Rain = 0
KPG1 121406Z 00000KT M01/M06 A3027 RMK A01 T10051060  RH  066%=      5-min Rain = 0
KPG1 121407Z 00000KT M00/M06 A3027 RMK A01 T10041060  RH  066%=      5-min Rain = 0
KPG1 121408Z 21000KT M00/M06 A3027 RMK A01 T10031059  RH  066%=      5-min Rain = 0
KPG1 121409Z 21000KT M00/M06 A3027 RMK A01 T10021059  RH  066%=      5-min Rain = 0
KPG1 121410Z 21001KT M00/M06 A3027 RMK A01 T10021059  RH  065%=      5-min Rain = 0
KPG1 121411Z 21001KT 00/06 A3027 RMK A01 T00-00-58  RH  065%=      5-min Rain = 0
KPG1 121412Z 21001KT 00/06 A3027 RMK A01 T00000-59  RH  065%=      5-min Rain = 0
KPG1 121413Z 21001KT M00/M06 A3028 RMK A01 T10011060  RH  065%=      5-min Rain = 0
KPG1 121414Z 21001KT M00/M06 A3028 RMK A01 T10041062  RH  065%=      5-min Rain = 0
KPG1 121415Z 21001KT M01/M06 A3028 RMK A01 T10071064  RH  065%=      5-min Rain = 0
KPG1 121416Z 21001KT M01/M06 A3028 RMK A01 T10091064  RH  066%=      5-min Rain = 0
KPG1 121417Z 21001KT M01/M06 A3028 RMK A01 T10101064  RH  067%=      5-min Rain = 0
KPG1 121418Z 21001KT M01/M06 A3028 RMK A01 T10121064  RH  068%=      5-min Rain = 0
KPG1 121419Z 21001KT M01/M06 A3028 RMK A01 T10121063  RH  069%=      5-min Rain = 0
KPG1 121420Z 21000KT M01/M06 A3028 RMK A01 T10111061  RH  069%=      5-min Rain = 0
KPG1 121421Z 00000KT M01/M06 A3028 RMK A01 T10101060  RH  069%=      5-min Rain = 0
KPG1 121422Z 00000KT M01/M06 A3028 RMK A01 T10071059  RH  068%=      5-min Rain = 0
KPG1 121423Z 00000KT M01/M06 A3028 RMK A01 T10051058  RH  067%=      5-min Rain = 0
KPG1 121424Z 00000KT M00/M06 A3028 RMK A01 T10021057  RH  067%=      5-min Rain = 0
KPG1 121425Z 21000KT 00/06 A3028 RMK A01 T00000-57  RH  066%=      5-min Rain = 0
KPG1 121426Z 00000KT 00/M06 A3028 RMK A01 T00021057  RH  065%=      5-min Rain = 0
KPG1 121427Z 00000KT 00/M06 A3028 RMK A01 T00021058  RH  064%=      5-min Rain = 0
KPG1 121428Z 24001KT 00/M06 A3028 RMK A01 T00031057  RH  064%=      5-min Rain = 0
KPG1 121429Z 24001KT 00/M06 A3028 RMK A01 T00041058  RH  063%=      5-min Rain = 0
KPG1 121430Z 24001KT 00/M06 A3028 RMK A01 T00041057  RH  063%=      5-min Rain = 0
KPG1 121431Z 25002KT 00/M06 A3028 RMK A01 T00041057  RH  063%=      5-min Rain = 0
KPG1 121432Z 26002KT 01/M06 A3028 RMK A01 T00051057  RH  063%=      5-min Rain = 0
KPG1 121433Z 26002KT 01/M06 A3028 RMK A01 T00051057  RH  063%=      5-min Rain = 0
KPG1 121434Z 25002KT 01/M06 A3028 RMK A01 T00051057  RH  063%=      5-min Rain = 0
KPG1 121435Z 26002KT 01/M06 A3028 RMK A01 T00061057  RH  063%=      5-min Rain = 0
KPG1 121436Z 26002KT 01/M06 A3028 RMK A01 T00071057  RH  062%=      5-min Rain = 0
KPG1 121437Z 25002KT 01/M06 A3028 RMK A01 T00081057  RH  062%=      5-min Rain = 0
KPG1 121438Z 24002KT 01/M06 A3028 RMK A01 T00081057  RH  062%=      5-min Rain = 0
KPG1 121439Z 22002KT 01/M06 A3028 RMK A01 T00091057  RH  061%=      5-min Rain = 0
KPG1 121440Z 20001KT 01/M06 A3028 RMK A01 T00101057  RH  061%=      5-min Rain = 0
KPG1 121441Z 20000KT 01/M06 A3028 RMK A01 T00111057  RH  061%=      5-min Rain = 0
KPG1 121442Z 00000KT 01/M06 A3028 RMK A01 T00121057  RH  060%=      5-min Rain = 0
KPG1 121443Z 00000KT 01/M06 A3028 RMK A01 T00131056  RH  060%=      5-min Rain = 0
KPG1 121444Z 00000KT 02/M06 A3028 RMK A01 T00151056  RH  059%=      5-min Rain = 0
KPG1 121445Z 00000KT 02/M06 A3028 RMK A01 T00151056  RH  059%=      5-min Rain = 0
KPG1 121446Z 00000KT 02/M06 A3028 RMK A01 T00161056  RH  059%=      5-min Rain = 0
KPG1 121447Z 19000KT 02/M06 A3028 RMK A01 T00161056  RH  059%=      5-min Rain = 0
KPG1 121448Z 00000KT 02/M06 A3028 RMK A01 T00181055  RH  058%=      5-min Rain = 0
KPG1 121449Z 08000KT 02/M05 A3028 RMK A01 T00211054  RH  058%=      5-min Rain = 0
KPG1 121450Z 07000KT 02/M05 A3028 RMK A01 T00221054  RH  057%=      5-min Rain = 0
KPG1 121451Z 06001KT 02/M05 A3028 RMK A01 T00231054  RH  057%=      5-min Rain = 0
KPG1 121452Z 06000KT 02/M06 A3028 RMK A01 T00221055  RH  057%=      5-min Rain = 0
KPG1 121453Z 00000KT 02/M06 A3028 RMK A01 T00201056  RH  057%=      5-min Rain = 0
KPG1 121454Z 16001KT 02/M06 A3028 RMK A01 T00211055  RH  057%=      5-min Rain = 0
KPG1 121455Z 16001KT 02/M06 A3028 RMK A01 T00211055  RH  057%=      5-min Rain = 0
KPG1 121456Z 15000KT 02/M06 A3028 RMK A01 T00221055  RH  057%=      5-min Rain = 0
KPG1 121457Z 14001KT 02/M06 A3028 RMK A01 T00231055  RH  056%=      5-min Rain = 0
KPG1 121458Z 13001KT 02/M05 A3028 RMK A01 T00241054  RH  056%=      5-min Rain = 0
KPG1 121459Z 10000KT 03/M05 A3028 RMK A01 T00251054  RH  056%=      5-min Rain = 0
KPG1 121500Z 12001KT 03/M05 A3029 RMK A01 T00261054  RH  056%=      5-min Rain = 0
KPG1 121501Z 13001KT 03/M05 A3029 RMK A01 T00271053  RH  056%=      5-min Rain = 0
KPG1 121502Z 16002KT 03/M05 A3029 RMK A01 T00271053  RH  055%=      5-min Rain = 0
KPG1 121503Z 17002KT 03/M05 A3029 RMK A01 T00281054  RH  055%=      5-min Rain = 0
KPG1 121504Z 18001KT 03/M05 A3029 RMK A01 T00281054  RH  055%=      5-min Rain = 0
KPG1 121505Z 17001KT 03/M05 A3029 RMK A01 T00291054  RH  055%=      5-min Rain = 0
KPG1 121506Z 20001KT 03/M05 A3029 RMK A01 T00281054  RH  055%=      5-min Rain = 0
KPG1 121507Z 18000KT 03/M05 A3029 RMK A01 T00281054  RH  055%=      5-min Rain = 0
KPG1 121508Z 14001KT 03/M05 A3029 RMK A01 T00281053  RH  055%=      5-min Rain = 0
KPG1 121509Z 16001KT 03/M05 A3029 RMK A01 T00311052  RH  055%=      5-min Rain = 0
KPG1 121510Z 13001KT 03/M05 A3029 RMK A01 T00331052  RH  054%=      5-min Rain = 0
KPG1 121511Z 16002KT 04/M05 A3029 RMK A01 T00351051  RH  053%=      5-min Rain = 0
KPG1 121512Z 16001KT 04/M05 A3029 RMK A01 T00361052  RH  053%=      5-min Rain = 0
KPG1 121513Z 16001KT 04/M05 A3029 RMK A01 T00371052  RH  052%=      5-min Rain = 0
KPG1 121514Z 15001KT 04/M05 A3029 RMK A01 T00371053  RH  052%=      5-min Rain = 0
KPG1 121515Z 16001KT 04/M05 A3029 RMK A01 T00371053  RH  052%=      5-min Rain = 0
KPG1 121516Z 18001KT 04/M05 A3029 RMK A01 T00381052  RH  052%=      5-min Rain = 0
KPG1 121517Z 16001KT 04/M05 A3029 RMK A01 T00371054  RH  052%=      5-min Rain = 0
KPG1 121518Z 17001KT 04/M05 A3029 RMK A01 T00371053  RH  052%=      5-min Rain = 0
KPG1 121519Z 14001KT 04/M05 A3029 RMK A01 T00381052  RH  052%=      5-min Rain = 0
KPG1 121520Z 16001KT 04/M05 A3029 RMK A01 T00411050  RH  051%=      5-min Rain = 0
KPG1 121521Z 16002KT 04/M05 A3029 RMK A01 T00441051  RH  050%=      5-min Rain = 0
KPG1 121522Z 16002KT 04/M05 A3029 RMK A01 T00441052  RH  050%=      5-min Rain = 0
KPG1 121523Z 18002KT 04/M05 A3029 RMK A01 T00441052  RH  050%=      5-min Rain = 0
KPG1 121524Z 17002KT 04/M05 A3029 RMK A01 T00431053  RH  050%=      5-min Rain = 0
KPG1 121525Z 16002KT 04/M05 A303 RMK A01 T00431053  RH  050%=      5-min Rain = 0
KPG1 121526Z 17002KT 04/M05 A303 RMK A01 T00441052  RH  050%=      5-min Rain = 0
KPG1 121527Z 17002KT 05/M05 A303 RMK A01 T00451052  RH  049%=      5-min Rain = 0
KPG1 121528Z 18001KT 05/M05 A303 RMK A01 T00451053  RH  049%=      5-min Rain = 0
KPG1 121529Z 17001KT 04/M05 A303 RMK A01 T00441053  RH  049%=      5-min Rain = 0
KPG1 121530Z 16002KT 05/M05 A303 RMK A01 T00451052  RH  049%=      5-min Rain = 0
KPG1 121531Z 16002KT 05/M05 A303 RMK A01 T00461052  RH  049%=      5-min Rain = 0
KPG1 121532Z 16002KT 05/M05 A303 RMK A01 T00461053  RH  048%=      5-min Rain = 0
KPG1 121533Z 17002KT 05/M05 A303 RMK A01 T00451054  RH  049%=      5-min Rain = 0
KPG1 121534Z 18001KT 05/M05 A303 RMK A01 T00451054  RH  049%=      5-min Rain = 0
KPG1 121535Z 16001KT 05/M05 A303 RMK A01 T00461053  RH  049%=      5-min Rain = 0
KPG1 121536Z 16001KT 05/M05 A303 RMK A01 T00471053  RH  048%=      5-min Rain = 0
KPG1 121537Z 16001KT 05/M05 A303 RMK A01 T00481053  RH  048%=      5-min Rain = 0
KPG1 121538Z 16001KT 05/M05 A303 RMK A01 T00501052  RH  048%=      5-min Rain = 0
KPG1 121539Z 16002KT 05/M05 A303 RMK A01 T00511052  RH  047%=      5-min Rain = 0
KPG1 121540Z 14001KT 05/M05 A303 RMK A01 T00511052  RH  047%=      5-min Rain = 0
KPG1 121541Z 14002KT 05/M05 A303 RMK A01 T00521051  RH  047%=      5-min Rain = 0
KPG1 121542Z 14001KT 05/M05 A303 RMK A01 T00541051  RH  047%=      5-min Rain = 0
KPG1 121543Z 15001KT 05/M05 A3031 RMK A01 T00541051  RH  046%=      5-min Rain = 0
KPG1 121544Z 15002KT 06/M05 A3031 RMK A01 T00561050  RH  046%=      5-min Rain = 0
KPG1 121545Z 15002KT 06/M05 A3031 RMK A01 T00581050  RH  046%=      5-min Rain = 0
KPG1 121546Z 17001KT 06/M05 A3031 RMK A01 T00591050  RH  045%=      5-min Rain = 0
KPG1 121547Z 15001KT 06/M05 A3031 RMK A01 T00601051  RH  045%=      5-min Rain = 0
KPG1 121548Z 14002KT 06/M05 A3031 RMK A01 T00601051  RH  045%=      5-min Rain = 0
KPG1 121549Z 15002KT 06/M05 A3031 RMK A01 T00601051  RH  045%=      5-min Rain = 0
KPG1 121550Z 15002KT 06/M05 A3031 RMK A01 T00591052  RH  045%=      5-min Rain = 0
KPG1 121551Z 13002KT 06/M05 A3031 RMK A01 T00591051  RH  045%=      5-min Rain = 0
KPG1 121552Z 13003KT 06/M05 A3031 RMK A01 T00601051  RH  045%=      5-min Rain = 0
KPG1 121553Z 14001KT 06/M05 A3031 RMK A01 T00601051  RH  045%=      5-min Rain = 0
KPG1 121554Z 15001KT 06/M05 A3031 RMK A01 T00601052  RH  045%=      5-min Rain = 0
KPG1 121555Z 14001KT 06/M05 A3031 RMK A01 T00601052  RH  045%=      5-min Rain = 0
KPG1 121556Z 14001KT 06/M05 A3031 RMK A01 T00611051  RH  044%=      5-min Rain = 0
KPG1 121557Z 13001KT 06/M05 A3031 RMK A01 T00621051  RH  044%=      5-min Rain = 0
KPG1 121558Z 12002KT 06/M05 A3031 RMK A01 T00641050  RH  044%=      5-min Rain = 0
KPG1 121559Z 08001KT 07/M05 A3031 RMK A01 T00661050  RH  044%=      5-min Rain = 0
KPG1 121600Z 12001KT 07/M05 A3031 RMK A01 T00681048  RH  043%=      5-min Rain = 0
KPG1 121601Z 10002KT 07/M05 A3031 RMK A01 T00711048  RH  043%=      5-min Rain = 0
KPG1 121602Z 06004KT 07/M05 A3031 RMK A01 T00721050  RH  042%=      5-min Rain = 0
KPG1 121603Z 04004KT 07/M05 A3031 RMK A01 T00741052  RH  040%=      5-min Rain = 0
KPG1 121604Z 05005KT 08/M05 A3031 RMK A01 T00761052  RH  040%=      5-min Rain = 0
KPG1 121605Z 05004KT 08/M06 A3031 RMK A01 T00761055  RH  039%=      5-min Rain = 0
KPG1 121606Z 05004KT 08/M06 A3031 RMK A01 T00751056  RH  039%=      5-min Rain = 0
KPG1 121607Z 05004KT 08/M06 A3031 RMK A01 T00761056  RH  039%=      5-min Rain = 0
KPG1 121608Z 08003KT 08/M06 A3031 RMK A01 T00761057  RH  039%=      5-min Rain = 0
KPG1 121609Z 11001KT 08/M05 A3031 RMK A01 T00761052  RH  040%=      5-min Rain = 0
KPG1 121610Z 07002KT 08/M05 A3031 RMK A01 T00751052  RH  040%=      5-min Rain = 0
KPG1 121611Z 15002KT 08/M05 A3031 RMK A01 T00761051  RH  040%=      5-min Rain = 0
KPG1 121612Z 14003KT 08/M05 A3031 RMK A01 T00761051  RH  040%=      5-min Rain = 0
KPG1 121613Z 15003KT 08/M05 A3031 RMK A01 T00761051  RH  040%=      5-min Rain = 0
KPG1 121614Z 16003KT 08/M05 A3031 RMK A01 T00761051  RH  040%=      5-min Rain = 0
KPG1 121615Z 15002KT 07/M05 A3031 RMK A01 T00741052  RH  040%=      5-min Rain = 0
KPG1 121616Z 17004KT 07/M05 A3031 RMK A01 T00731051  RH  041%=      5-min Rain = 0
KPG1 121617Z 17004KT 07/M05 A3031 RMK A01 T00741051  RH  041%=      5-min Rain = 0
KPG1 121618Z 17005KT 07/M05 A3031 RMK A01 T00741050  RH  041%=      5-min Rain = 0
KPG1 121619Z 17004KT 07/M05 A3031 RMK A01 T00741050  RH  041%=      5-min Rain = 0
KPG1 121620Z 18004KT 07/M05 A3031 RMK A01 T00731051  RH  041%=      5-min Rain = 0
KPG1 121621Z 18003KT 07/M05 A3031 RMK A01 T00721052  RH  041%=      5-min Rain = 0
KPG1 121622Z 16004KT 07/M05 A3031 RMK A01 T00711050  RH  042%=      5-min Rain = 0
KPG1 121623Z 16003KT 08/M05 A3031 RMK A01 T00751048  RH  041%=      5-min Rain = 0
KPG1 121624Z 17003KT 08/M05 A3031 RMK A01 T00771049  RH  041%=      5-min Rain = 0
KPG1 121625Z 17003KT 08/M05 A3031 RMK A01 T00791048  RH  040%=      5-min Rain = 0
KPG1 121626Z 17002KT 08/M05 A3031 RMK A01 T00791049  RH  040%=      5-min Rain = 0
KPG1 121627Z 19002KT 08/M05 A3031 RMK A01 T00781050  RH  040%=      5-min Rain = 0
KPG1 121628Z 17002KT 08/M05 A3031 RMK A01 T00771051  RH  040%=      5-min Rain = 0
KPG1 121629Z 19003KT 08/M05 A3031 RMK A01 T00771051  RH  040%=      5-min Rain = 0
KPG1 121630Z 17003KT 08/M05 A3031 RMK A01 T00761050  RH  040%=      5-min Rain = 0
KPG1 121631Z 16002KT 08/M05 A3031 RMK A01 T00761050  RH  040%=      5-min Rain = 0
KPG1 121632Z 12002KT 08/M05 A3031 RMK A01 T00781049  RH  040%=      5-min Rain = 0
KPG1 121633Z 11001KT 08/M05 A3031 RMK A01 T00821049  RH  039%=      5-min Rain = 0
KPG1 121634Z 14001KT 09/M05 A3031 RMK A01 T00851049  RH  038%=      5-min Rain = 0
KPG1 121635Z 14002KT 09/M05 A3031 RMK A01 T00881047  RH  038%=      5-min Rain = 0
KPG1 121636Z 15002KT 09/M05 A3031 RMK A01 T00901048  RH  037%=      5-min Rain = 0
KPG1 121637Z 16003KT 09/M05 A3031 RMK A01 T00901049  RH  037%=      5-min Rain = 0
KPG1 121638Z 16003KT 09/M05 A3031 RMK A01 T00901049  RH  037%=      5-min Rain = 0
KPG1 121639Z 17003KT 09/M05 A3031 RMK A01 T00891049  RH  037%=      5-min Rain = 0
KPG1 121640Z 18003KT 09/M05 A3031 RMK A01 T00881052  RH  037%=      5-min Rain = 0
KPG1 121641Z 17003KT 09/M05 A3031 RMK A01 T00871051  RH  037%=      5-min Rain = 0
KPG1 121642Z 15003KT 09/M05 A3031 RMK A01 T00881051  RH  037%=      5-min Rain = 0
KPG1 121643Z 16003KT 09/M05 A3031 RMK A01 T00891051  RH  037%=      5-min Rain = 0
KPG1 121644Z 16003KT 09/M05 A3031 RMK A01 T00901051  RH  036%=      5-min Rain = 0
KPG1 121645Z 16004KT 09/M05 A3031 RMK A01 T00921050  RH  036%=      5-min Rain = 0
KPG1 121646Z 16004KT 09/M05 A3031 RMK A01 T00931050  RH  036%=      5-min Rain = 0
KPG1 121647Z 17004KT 09/M05 A3031 RMK A01 T00921049  RH  037%=      5-min Rain = 0
KPG1 121648Z 17004KT 09/M05 A3031 RMK A01 T00921050  RH  036%=      5-min Rain = 0
KPG1 121649Z 16004KT 09/M05 A3031 RMK A01 T00901051  RH  036%=      5-min Rain = 0
KPG1 121650Z 18004KT 09/M05 A3031 RMK A01 T00881051  RH  037%=      5-min Rain = 0
KPG1 121651Z 18004KT 09/M05 A3031 RMK A01 T00871050  RH  038%=      5-min Rain = 0
KPG1 121652Z 18004KT 09/M05 A3031 RMK A01 T00891049  RH  037%=      5-min Rain = 0
KPG1 121653Z 18003KT 09/M05 A3031 RMK A01 T00901050  RH  037%=      5-min Rain = 0
KPG1 121654Z 16002KT 09/M05 A3031 RMK A01 T00881051  RH  037%=      5-min Rain = 0
KPG1 121655Z 14002KT 09/M05 A3031 RMK A01 T00901049  RH  037%=      5-min Rain = 0
KPG1 121656Z 15004KT 09/M05 A3031 RMK A01 T00931048  RH  036%=      5-min Rain = 0
KPG1 121657Z 14003KT 10/M05 A3031 RMK A01 T00961049  RH  036%=      5-min Rain = 0
KPG1 121658Z 17003KT 10/M05 A3031 RMK A01 T00971049  RH  035%=      5-min Rain = 0
KPG1 121659Z 16004KT 10/M05 A3031 RMK A01 T00981049  RH  035%=      5-min Rain = 0
KPG1 121700Z 17004KT 10/M05 A3031 RMK A01 T01001049  RH  035%=      5-min Rain = 0
KPG1 121701Z 17003KT 10/M05 A3031 RMK A01 T00991049  RH  035%=      5-min Rain = 0
KPG1 121702Z 15003KT 10/M05 A3031 RMK A01 T00991050  RH  035%=      5-min Rain = 0
KPG1 121703Z 15003KT 10/M05 A3031 RMK A01 T01001050  RH  034%=      5-min Rain = 0
KPG1 121704Z 15004KT 10/M05 A3031 RMK A01 T01001051  RH  034%=      5-min Rain = 0
KPG1 121705Z 16004KT 10/M05 A3031 RMK A01 T00991051  RH  034%=      5-min Rain = 0
KPG1 121706Z 15003KT 10/M05 A3031 RMK A01 T00981053  RH  034%=      5-min Rain = 0
KPG1 121707Z 15003KT 10/M05 A3031 RMK A01 T00961053  RH  034%=      5-min Rain = 0
KPG1 121708Z 15004KT 10/M05 A3031 RMK A01 T00971053  RH  034%=      5-min Rain = 0
KPG1 121709Z 18003KT 10/M05 A3031 RMK A01 T01001051  RH  034%=      5-min Rain = 0
KPG1 121710Z 18004KT 10/M05 A3031 RMK A01 T01011054  RH  033%=      5-min Rain = 0
KPG1 121711Z 18003KT 10/M05 A3031 RMK A01 T00991054  RH  034%=      5-min Rain = 0
KPG1 121712Z 19003KT 10/M05 A3031 RMK A01 T00981054  RH  034%=      5-min Rain = 0
KPG1 121713Z 19002KT 10/M05 A3031 RMK A01 T00981054  RH  034%=      5-min Rain = 0
KPG1 121714Z 17003KT 10/M05 A3031 RMK A01 T00991052  RH  034%=      5-min Rain = 0
KPG1 121715Z 18002KT 10/M05 A3031 RMK A01 T01021052  RH  033%=      5-min Rain = 0
KPG1 121716Z 17002KT 10/M05 A303 RMK A01 T01031053  RH  033%=      5-min Rain = 0
KPG1 121717Z 18004KT 10/M05 A303 RMK A01 T01041052  RH  033%=      5-min Rain = 0
KPG1 121718Z 18003KT 11/M05 A303 RMK A01 T01051054  RH  032%=      5-min Rain = 0
KPG1 121719Z 18003KT 10/M05 A303 RMK A01 T01041053  RH  033%=      5-min Rain = 0
KPG1 121720Z 17004KT 11/M05 A303 RMK A01 T01051053  RH  032%=      5-min Rain = 0
KPG1 121721Z 19004KT 11/M05 A303 RMK A01 T01061054  RH  032%=      5-min Rain = 0
KPG1 121722Z 21002KT 11/M06 A303 RMK A01 T01061056  RH  032%=      5-min Rain = 0
KPG1 121723Z 19004KT 11/M06 A303 RMK A01 T01061055  RH  032%=      5-min Rain = 0
KPG1 121724Z 18004KT 11/M05 A303 RMK A01 T01061053  RH  032%=      5-min Rain = 0
KPG1 121725Z 17004KT 11/M05 A303 RMK A01 T01061053  RH  032%=      5-min Rain = 0
KPG1 121726Z 19005KT 11/M05 A303 RMK A01 T01061051  RH  033%=      5-min Rain = 0
KPG1 121727Z 21003KT 11/M05 A303 RMK A01 T01081053  RH  032%=      5-min Rain = 0
KPG1 121728Z 22003KT 11/M06 A303 RMK A01 T01051056  RH  032%=      5-min Rain = 0
KPG1 121729Z 23003KT 10/M06 A303 RMK A01 T01031056  RH  032%=      5-min Rain = 0
KPG1 121730Z 20004KT 10/M05 A303 RMK A01 T01021054  RH  033%=      5-min Rain = 0
KPG1 121731Z 18003KT 10/M05 A303 RMK A01 T01041053  RH  033%=      5-min Rain = 0
KPG1 121732Z 19004KT 11/M05 A303 RMK A01 T01051053  RH  032%=      5-min Rain = 0
KPG1 121733Z 21003KT 11/M05 A303 RMK A01 T01051054  RH  032%=      5-min Rain = 0
KPG1 121734Z 18003KT 10/M06 A303 RMK A01 T01041055  RH  032%=      5-min Rain = 0
KPG1 121735Z 19002KT 10/M05 A3029 RMK A01 T01031054  RH  033%=      5-min Rain = 0
KPG1 121736Z 19004KT 10/M05 A3029 RMK A01 T01031053  RH  033%=      5-min Rain = 0
KPG1 121737Z 18003KT 11/M05 A3029 RMK A01 T01051052  RH  033%=      5-min Rain = 0
KPG1 121738Z 18004KT 11/M05 A3029 RMK A01 T01061053  RH  032%=      5-min Rain = 0
KPG1 121739Z 17003KT 11/M05 A3029 RMK A01 T01071052  RH  032%=      5-min Rain = 0
KPG1 121740Z 17003KT 11/M05 A3029 RMK A01 T01081051  RH  032%=      5-min Rain = 0
KPG1 121741Z 18002KT 11/M05 A3029 RMK A01 T01091052  RH  032%=      5-min Rain = 0
KPG1 121742Z 18004KT 11/M05 A3029 RMK A01 T01101052  RH  032%=      5-min Rain = 0
KPG1 121743Z 16005KT 11/M05 A3029 RMK A01 T01101053  RH  032%=      5-min Rain = 0
KPG1 121744Z 14004KT 11/M05 A3029 RMK A01 T01091054  RH  031%=      5-min Rain = 0
KPG1 121745Z 14003KT 11/M05 A3029 RMK A01 T01081053  RH  032%=      5-min Rain = 0
KPG1 121746Z 15004KT 11/M05 A3029 RMK A01 T01111050  RH  032%=      5-min Rain = 0
KPG1 121747Z 16004KT 11/M05 A3029 RMK A01 T01141051  RH  031%=      5-min Rain = 0
KPG1 121748Z 18004KT 12/M05 A3029 RMK A01 T01151051  RH  031%=      5-min Rain = 0
KPG1 121749Z 17002KT 11/M05 A3029 RMK A01 T01141051  RH  031%=      5-min Rain = 0
KPG1 121750Z 17002KT 11/M05 A3029 RMK A01 T01131052  RH  031%=      5-min Rain = 0
KPG1 121751Z 16004KT 11/M05 A3029 RMK A01 T01131051  RH  031%=      5-min Rain = 0
KPG1 121752Z 14003KT 11/M05 A3028 RMK A01 T01141051  RH  031%=      5-min Rain = 0
KPG1 121753Z 15004KT 12/M05 A3028 RMK A01 T01151052  RH  031%=      5-min Rain = 0
KPG1 121754Z 17005KT 12/M05 A3028 RMK A01 T01161051  RH  031%=      5-min Rain = 0
KPG1 121755Z 18005KT 12/M05 A3028 RMK A01 T01211046  RH  031%=      5-min Rain = 0
KPG1 121756Z 18005KT 12/M05 A3028 RMK A01 T01231049  RH  030%=      5-min Rain = 0
KPG1 121757Z 19003KT 12/M05 A3028 RMK A01 T01201051  RH  030%=      5-min Rain = 0
KPG1 121758Z 15004KT 12/M05 A3028 RMK A01 T01191050  RH  030%=      5-min Rain = 0
KPG1 121759Z 14002KT 12/M05 A3028 RMK A01 T01181052  RH  030%=      5-min Rain = 0
KPG1 121800Z 14004KT 12/M05 A3028 RMK A01 T01171051  RH  031%=      5-min Rain = 0
KPG1 121801Z 16004KT 12/M05 A3028 RMK A01 T01181049  RH  031%=      5-min Rain = 0
KPG1 121802Z 19004KT 12/M05 A3027 RMK A01 T01201049  RH  030%=      5-min Rain = 0
KPG1 121803Z 21005KT 12/M05 A3027 RMK A01 T01231047  RH  030%=      5-min Rain = 0
KPG1 121804Z 20005KT 13/M05 A3027 RMK A01 T01251047  RH  030%=      5-min Rain = 0
KPG1 121805Z 19004KT 12/M05 A3027 RMK A01 T01221049  RH  030%=      5-min Rain = 0
KPG1 121806Z 17004KT 12/M05 A3027 RMK A01 T01201049  RH  030%=      5-min Rain = 0
KPG1 121807Z 17006KT 12/M05 A3027 RMK A01 T01201049  RH  030%=      5-min Rain = 0
KPG1 121808Z 18005KT 12/M05 A3027 RMK A01 T01211049  RH  030%=      5-min Rain = 0
KPG1 121809Z 19005KT 12/M05 A3027 RMK A01 T01211049  RH  030%=      5-min Rain = 0
KPG1 121810Z 20004KT 12/M05 A3027 RMK A01 T01201048  RH  031%=      5-min Rain = 0
KPG1 121811Z 20004KT 12/M05 A3026 RMK A01 T01191047  RH  031%=      5-min Rain = 0
KPG1 121812Z 17004KT 12/M05 A3026 RMK A01 T01201046  RH  031%=      5-min Rain = 0
KPG1 121813Z 17004KT 12/M05 A3026 RMK A01 T01221048  RH  030%=      5-min Rain = 0
KPG1 121814Z 16004KT 12/M05 A3026 RMK A01 T01231048  RH  030%=      5-min Rain = 0
KPG1 121815Z 17004KT 12/M05 A3026 RMK A01 T01241047  RH  030%=      5-min Rain = 0
KPG1 121816Z 15003KT 13/M05 A3026 RMK A01 T01261047  RH  030%=      5-min Rain = 0
KPG1 121817Z 14005KT 13/M05 A3026 RMK A01 T01271047  RH  029%=      5-min Rain = 0
KPG1 121818Z 15006KT 13/M05 A3026 RMK A01 T01271048  RH  029%=      5-min Rain = 0
KPG1 121819Z 14007KT 13/M05 A3025 RMK A01 T01271048  RH  029%=      5-min Rain = 0
KPG1 121820Z 16004KT 13/M05 A3025 RMK A01 T01261048  RH  029%=      5-min Rain = 0
KPG1 121821Z 17006KT 13/M05 A3025 RMK A01 T01281046  RH  029%=      5-min Rain = 0
KPG1 121822Z 19007KT 13/M05 A3025 RMK A01 T01271046  RH  030%=      5-min Rain = 0
KPG1 121823Z 19005KT 13/M04 A3025 RMK A01 T01301043  RH  030%=      5-min Rain = 0
KPG1 121824Z 18007KT 13/M04 A3025 RMK A01 T01331043  RH  029%=      5-min Rain = 0
KPG1 121825Z 19006KT 13/M04 A3025 RMK A01 T01341044  RH  029%=      5-min Rain = 0
KPG1 121826Z 20005KT 13/M05 A3025 RMK A01 T01331046  RH  029%=      5-min Rain = 0
KPG1 121827Z 20005KT 13/M05 A3025 RMK A01 T01301047  RH  029%=      5-min Rain = 0
KPG1 121828Z 18008KT 13/M05 A3024 RMK A01 T01291046  RH  029%=      5-min Rain = 0
KPG1 121829Z 19007KT 13/M05 A3024 RMK A01 T01301047  RH  029%=      5-min Rain = 0
KPG1 121830Z 20006KT 13/M05 A3024 RMK A01 T01281047  RH  029%=      5-min Rain = 0
KPG1 121831Z 19007KT 13/M05 A3024 RMK A01 T01281048  RH  029%=      5-min Rain = 0
KPG1 121832Z 20006KT 13/M05 A3024 RMK A01 T01261049  RH  029%=      5-min Rain = 0
KPG1 121833Z 19006KT 13/M05 A3024 RMK A01 T01251048  RH  030%=      5-min Rain = 0
KPG1 121834Z 20006KT 13/M05 A3024 RMK A01 T01251047  RH  030%=      5-min Rain = 0
KPG1 121835Z 20005KT 13/M05 A3024 RMK A01 T01261047  RH  029%=      5-min Rain = 0
KPG1 121836Z 17005KT 13/M05 A3024 RMK A01 T01281045  RH  030%=      5-min Rain = 0
KPG1 121837Z 18006KT 13/M04 A3024 RMK A01 T01331044  RH  029%=      5-min Rain = 0
KPG1 121838Z 20006KT 13/M05 A3024 RMK A01 T01341045  RH  029%=      5-min Rain = 0
KPG1 121839Z 20008KT 13/M04 A3023 RMK A01 T01331044  RH  029%=      5-min Rain = 0
KPG1 121840Z 20008KT 13/M04 A3023 RMK A01 T01321044  RH  029%=      5-min Rain = 0
KPG1 121841Z 21006KT 13/M05 A3023 RMK A01 T01301045  RH  029%=      5-min Rain = 0
KPG1 121842Z 18007KT 13/M04 A3023 RMK A01 T01301044  RH  030%=      5-min Rain = 0
KPG1 121843Z 18007KT 13/M04 A3023 RMK A01 T01321043  RH  029%=      5-min Rain = 0
KPG1 121844Z 19008KT 13/M04 A3023 RMK A01 T01341042  RH  029%=      5-min Rain = 0
KPG1 121845Z 19007KT 13/M04 A3023 RMK A01 T01341042  RH  029%=      5-min Rain = 0
KPG1 121846Z 19008KT 13/M04 A3023 RMK A01 T01341041  RH  029%=      5-min Rain = 0
KPG1 121847Z 18009KT 14/M04 A3023 RMK A01 T01351041  RH  029%=      5-min Rain = 0
KPG1 121848Z 19007KT 14/M04 A3022 RMK A01 T01351042  RH  029%=      5-min Rain = 0
KPG1 121849Z 21008KT 14/M04 A3022 RMK A01 T01351041  RH  029%=      5-min Rain = 0
KPG1 121850Z 20009KT 14/M04 A3022 RMK A01 T01361040  RH  029%=      5-min Rain = 0
KPG1 121851Z 21008KT 14/M04 A3022 RMK A01 T01361039  RH  029%=      5-min Rain = 0
KPG1 121852Z 20009KT 14/M04 A3022 RMK A01 T01361040  RH  029%=      5-min Rain = 0
KPG1 121853Z 19008KT 14/M04 A3022 RMK A01 T01361040  RH  029%=      5-min Rain = 0
KPG1 121854Z 19007KT 14/M04 A3022 RMK A01 T01371039  RH  029%=      5-min Rain = 0
KPG1 121855Z 19007KT 14/M04 A3022 RMK A01 T01391040  RH  029%=      5-min Rain = 0
KPG1 121856Z 21007KT 14/M04 A3022 RMK A01 T01381041  RH  029%=      5-min Rain = 0
KPG1 121857Z 21009KT 14/M04 A3021 RMK A01 T01371041  RH  029%=      5-min Rain = 0
KPG1 121858Z 21010KT 14/M04 A3021 RMK A01 T01361041  RH  029%=      5-min Rain = 0
KPG1 121859Z 21009KT 14/M04 A3021 RMK A01 T01361040  RH  029%=      5-min Rain = 0
KPG1 121900Z 18008KT 14/M04 A3021 RMK A01 T01371039  RH  029%=      5-min Rain = 0
KPG1 121901Z 18006KT 14/M04 A3021 RMK A01 T01381040  RH  029%=      5-min Rain = 0
KPG1 121902Z 17007KT 14/M04 A3021 RMK A01 T01371040  RH  029%=      5-min Rain = 0
KPG1 121903Z 21007KT 14/M04 A3021 RMK A01 T01401038  RH  029%=      5-min Rain = 0
KPG1 121904Z 18007KT 14/M04 A3021 RMK A01 T01431038  RH  028%=      5-min Rain = 0
KPG1 121905Z 18007KT 15/M04 A302 RMK A01 T01451038  RH  028%=      5-min Rain = 0
KPG1 121906Z 17005KT 15/M04 A302 RMK A01 T01461037  RH  028%=      5-min Rain = 0
KPG1 121907Z 17007KT 15/M04 A302 RMK A01 T01481037  RH  028%=      5-min Rain = 0
KPG1 121908Z 17007KT 15/M04 A302 RMK A01 T01491038  RH  027%=      5-min Rain = 0
KPG1 121909Z 18008KT 15/M04 A302 RMK A01 T01481038  RH  027%=      5-min Rain = 0
KPG1 121910Z 18007KT 15/M04 A302 RMK A01 T01501038  RH  027%=      5-min Rain = 0
KPG1 121911Z 19006KT 15/M04 A302 RMK A01 T01501038  RH  027%=      5-min Rain = 0
KPG1 121912Z 17008KT 15/M04 A302 RMK A01 T01501037  RH  027%=      5-min Rain = 0
KPG1 121913Z 17010KT 15/M04 A3019 RMK A01 T01491038  RH  027%=      5-min Rain = 0
KPG1 121914Z 18009KT 15/M04 A3019 RMK A01 T01491037  RH  027%=      5-min Rain = 0
KPG1 121915Z 18007KT 15/M04 A302 RMK A01 T01501037  RH  027%=      5-min Rain = 0
KPG1 121916Z 18005KT 15/M04 A3019 RMK A01 T01491038  RH  027%=      5-min Rain = 0
KPG1 121917Z 18007KT 15/M04 A3019 RMK A01 T01501036  RH  027%=      5-min Rain = 0
KPG1 121918Z 18008KT 15/M04 A3019 RMK A01 T01511037  RH  027%=      5-min Rain = 0
KPG1 121919Z 18007KT 15/M04 A3019 RMK A01 T01501037  RH  027%=      5-min Rain = 0
KPG1 121920Z 18006KT 15/M04 A3019 RMK A01 T01501036  RH  027%=      5-min Rain = 0
KPG1 121921Z 19004KT 15/M04 A3019 RMK A01 T01511036  RH  027%=      5-min Rain = 0
KPG1 121922Z 17008KT 15/M04 A3019 RMK A01 T01531035  RH  027%=      5-min Rain = 0
KPG1 121923Z 20008KT 16/M04 A3019 RMK A01 T01551035  RH  027%=      5-min Rain = 0
KPG1 121924Z 19009KT 16/M04 A3018 RMK A01 T01561035  RH  027%=      5-min Rain = 0
KPG1 121925Z 18011KT 16/M03 A3018 RMK A01 T01581033  RH  027%=      5-min Rain = 0
KPG1 121926Z 18009KT 16/M03 A3018 RMK A01 T01631031  RH  026%=      5-min Rain = 0
KPG1 121927Z 18009KT 17/M03 A3018 RMK A01 T01671031  RH  026%=      5-min Rain = 0
KPG1 121928Z 18007KT 17/M03 A3018 RMK A01 T01691032  RH  025%=      5-min Rain = 0
KPG1 121929Z 19006KT 17/M03 A3018 RMK A01 T01671033  RH  025%=      5-min Rain = 0
KPG1 121930Z 18007KT 17/M03 A3018 RMK A01 T01671032  RH  025%=      5-min Rain = 0
KPG1 121931Z 17006KT 17/M03 A3018 RMK A01 T01661033  RH  025%=      5-min Rain = 0
KPG1 121932Z 17008KT 17/M03 A3018 RMK A01 T01661033  RH  025%=      5-min Rain = 0
KPG1 121933Z 19009KT 17/M03 A3018 RMK A01 T01661031  RH  026%=      5-min Rain = 0
KPG1 121934Z 19009KT 17/M03 A3018 RMK A01 T01681032  RH  025%=      5-min Rain = 0
KPG1 121935Z 20008G13KT 17/M03 A3018 RMK A01 T01651032  RH  026%=      5-min Rain = 0
KPG1 121941Z 21007KT 17/M03 A3017 RMK A01 T01681031  RH  026%=      5-min Rain = 0
KPG1 121942Z 19012KT 17/M03 A3017 RMK A01 T01681029  RH  026%=      5-min Rain = 0
KPG1 121943Z 19010KT 17/M03 A3017 RMK A01 T01691030  RH  025%=      5-min Rain = 0
KPG1 121944Z 20008KT 17/M03 A3017 RMK A01 T01671030  RH  026%=      5-min Rain = 0
KPG1 121945Z 20010KT 17/M03 A3017 RMK A01 T01681030  RH  026%=      5-min Rain = 0
KPG1 121946Z 19007KT 17/M03 A3017 RMK A01 T01661031  RH  026%=      5-min Rain = 0
KPG1 121947Z 20008KT 17/M03 A3017 RMK A01 T01671029  RH  026%=      5-min Rain = 0
KPG1 121948Z 20009KT 17/M03 A3017 RMK A01 T01701029  RH  026%=      5-min Rain = 0
KPG1 121949Z 21010KT 17/M03 A3017 RMK A01 T01711029  RH  025%=      5-min Rain = 0
KPG1 121950Z 22012KT 17/M03 A3016 RMK A01 T01701030  RH  025%=      5-min Rain = 0
KPG1 121951Z 21009KT 17/M03 A3016 RMK A01 T01691030  RH  026%=      5-min Rain = 0
KPG1 121952Z 22010KT 17/M03 A3016 RMK A01 T01691030  RH  026%=      5-min Rain = 0
KPG1 121953Z 23009KT 17/M03 A3016 RMK A01 T01671032  RH  026%=      5-min Rain = 0
KPG1 121954Z 22011KT 17/M03 A3016 RMK A01 T01651031  RH  026%=      5-min Rain = 0
KPG1 121955Z 22012KT 17/M03 A3016 RMK A01 T01671031  RH  026%=      5-min Rain = 0
KPG1 121956Z 22010KT 17/M03 A3016 RMK A01 T01661031  RH  026%=      5-min Rain = 0
KPG1 121957Z 21010KT 17/M03 A3016 RMK A01 T01681029  RH  026%=      5-min Rain = 0
KPG1 121958Z 23011KT 17/M03 A3016 RMK A01 T01701030  RH  025%=      5-min Rain = 0
KPG1 121959Z 22009KT 17/M03 A3016 RMK A01 T01701029  RH  025%=      5-min Rain = 0
KPG1 122000Z 20011KT 17/M03 A3015 RMK A01 T01721029  RH  025%=      5-min Rain = 0
KPG1 122001Z 21011G16KT 17/M03 A3015 RMK A01 T01721030  RH  025%=      5-min Rain = 0
KPG1 122002Z 20008KT 17/M03 A3016 RMK A01 T01681031  RH  025%=      5-min Rain = 0
KPG1 122003Z 19010KT 17/M03 A3015 RMK A01 T01681030  RH  026%=      5-min Rain = 0
KPG1 122004Z 20009KT 17/M03 A3015 RMK A01 T01671031  RH  026%=      5-min Rain = 0
KPG1 122005Z 20009KT 17/M03 A3015 RMK A01 T01671031  RH  026%=      5-min Rain = 0
KPG1 122006Z 19008KT 17/M03 A3015 RMK A01 T01681030  RH  026%=      5-min Rain = 0
KPG1 122007Z 20011KT 17/M03 A3015 RMK A01 T01711028  RH  025%=      5-min Rain = 0
KPG1 122008Z 22009KT 17/M03 A3015 RMK A01 T01731029  RH  025%=      5-min Rain = 0
KPG1 122009Z 22012KT 17/M03 A3015 RMK A01 T01731028  RH  025%=      5-min Rain = 0
KPG1 122010Z 20010KT 17/M03 A3015 RMK A01 T01731029  RH  025%=      5-min Rain = 0
KPG1 122011Z 20007KT 17/M03 A3015 RMK A01 T01711029  RH  025%=      5-min Rain = 0
KPG1 122012Z 22008KT 17/M03 A3015 RMK A01 T01741027  RH  025%=      5-min Rain = 0
KPG1 122013Z 23009KT 18/M03 A3015 RMK A01 T01771028  RH  025%=      5-min Rain = 0
KPG1 122014Z 22008KT 18/M03 A3015 RMK A01 T01761029  RH  025%=      5-min Rain = 0
KPG1 122015Z 19010KT 18/M03 A3015 RMK A01 T01751028  RH  025%=      5-min Rain = 0
KPG1 122016Z 18009KT 18/M03 A3015 RMK A01 T01771027  RH  025%=      5-min Rain = 0
KPG1 122017Z 18009KT 18/M03 A3015 RMK A01 T01761029  RH  025%=      5-min Rain = 0
KPG1 122018Z 17010KT 18/M03 A3015 RMK A01 T01751028  RH  025%=      5-min Rain = 0
KPG1 122019Z 17008KT 17/M03 A3015 RMK A01 T01741029  RH  025%=      5-min Rain = 0
KPG1 122020Z 18010KT 18/M03 A3015 RMK A01 T01751027  RH  025%=      5-min Rain = 0
KPG1 122021Z 17010KT 18/M03 A3015 RMK A01 T01781027  RH  025%=      5-min Rain = 0
KPG1 122022Z 16008KT 18/M03 A3015 RMK A01 T01771027  RH  025%=      5-min Rain = 0
KPG1 122023Z 15008KT 18/M03 A3015 RMK A01 T01771027  RH  025%=      5-min Rain = 0
KPG1 122024Z 15011KT 18/M03 A3014 RMK A01 T01781028  RH  024%=      5-min Rain = 0
KPG1 122025Z 17010KT 18/M03 A3015 RMK A01 T01771029  RH  025%=      5-min Rain = 0
KPG1 122026Z 17010KT 18/M03 A3015 RMK A01 T01771028  RH  025%=      5-min Rain = 0
KPG1 122027Z 18011KT 18/M03 A3015 RMK A01 T01791028  RH  024%=      5-min Rain = 0
KPG1 122028Z 18010KT 18/M03 A3015 RMK A01 T01811028  RH  024%=      5-min Rain = 0
KPG1 122029Z 19006KT 18/M03 A3015 RMK A01 T01811029  RH  024%=      5-min Rain = 0
KPG1 122030Z 15007KT 18/M03 A3015 RMK A01 T01801028  RH  024%=      5-min Rain = 0
KPG1 122031Z 17009KT 18/M03 A3015 RMK A01 T01791028  RH  024%=      5-min Rain = 0
KPG1 122032Z 20004KT 18/M03 A3015 RMK A01 T01771029  RH  024%=      5-min Rain = 0
KPG1 122033Z 18005KT 18/M03 A3014 RMK A01 T01751028  RH  025%=      5-min Rain = 0
KPG1 122034Z 20007KT 18/M03 A3014 RMK A01 T01781027  RH  025%=      5-min Rain = 0
KPG1 122035Z 21013KT 18/M03 A3014 RMK A01 T01801028  RH  024%=      5-min Rain = 0
KPG1 122036Z 21009KT 18/M03 A3014 RMK A01 T01811030  RH  024%=      5-min Rain = 0
KPG1 122037Z 21008KT 18/M03 A3014 RMK A01 T01831028  RH  024%=      5-min Rain = 0
KPG1 122038Z 20008KT 18/M03 A3014 RMK A01 T01841029  RH  023%=      5-min Rain = 0
KPG1 122039Z 21007KT 18/M03 A3014 RMK A01 T01831029  RH  023%=      5-min Rain = 0
KPG1 122040Z 20009KT 18/M03 A3014 RMK A01 T01831029  RH  023%=      5-min Rain = 0
KPG1 122041Z 21009KT 18/M03 A3014 RMK A01 T01831029  RH  023%=      5-min Rain = 0
KPG1 122042Z 21008KT 18/M03 A3014 RMK A01 T01841029  RH  023%=      5-min Rain = 0
KPG1 122043Z 20009KT 19/M03 A3014 RMK A01 T01851029  RH  023%=      5-min Rain = 0
KPG1 122044Z 19011KT 19/M03 A3013 RMK A01 T01851031  RH  023%=      5-min Rain = 0
KPG1 122045Z 18012KT 18/M03 A3013 RMK A01 T01831031  RH  023%=      5-min Rain = 0
KPG1 122046Z 19015KT 19/M03 A3013 RMK A01 T01861031  RH  023%=      5-min Rain = 0
KPG1 122047Z 20012KT 19/M03 A3013 RMK A01 T01881034  RH  022%=      5-min Rain = 0
KPG1 122048Z 19012KT 19/M03 A3013 RMK A01 T01871034  RH  022%=      5-min Rain = 0
KPG1 122049Z 19012KT 19/M03 A3013 RMK A01 T01861034  RH  022%=      5-min Rain = 0
KPG1 122050Z 20011G16KT 19/M03 A3013 RMK A01 T01881033  RH  022%=      5-min Rain = 0
KPG1 122051Z 19009KT 19/M03 A3013 RMK A01 T01901034  RH  022%=      5-min Rain = 0
KPG1 122052Z 20009KT 19/M03 A3013 RMK A01 T01901032  RH  022%=      5-min Rain = 0
KPG1 122053Z 21012KT 19/M03 A3013 RMK A01 T01911032  RH  022%=      5-min Rain = 0
KPG1 122054Z 21010KT 19/M03 A3013 RMK A01 T01901033  RH  022%=      5-min Rain = 0
KPG1 122055Z 20011KT 19/M03 A3013 RMK A01 T01891033  RH  022%=      5-min Rain = 0
KPG1 122056Z 20012KT 19/M04 A3012 RMK A01 T01881037  RH  021%=      5-min Rain = 0
KPG1 122057Z 20013KT 19/M04 A3012 RMK A01 T01861037  RH  022%=      5-min Rain = 0
KPG1 122058Z 21014KT 19/M04 A3012 RMK A01 T01861042  RH  021%=      5-min Rain = 0
KPG1 122059Z 22011KT 19/M05 A3012 RMK A01 T01871045  RH  020%=      5-min Rain = 0
KPG1 122100Z 20008KT 19/M04 A3012 RMK A01 T01861044  RH  021%=      5-min Rain = 0
KPG1 122101Z 19013KT 19/M04 A3012 RMK A01 T01871043  RH  021%=      5-min Rain = 0
KPG1 122102Z 18011KT 19/M04 A3012 RMK A01 T01881043  RH  020%=      5-min Rain = 0
KPG1 122103Z 19011KT 19/M04 A3012 RMK A01 T01901043  RH  020%=      5-min Rain = 0
KPG1 122104Z 20012G17KT 19/M04 A3012 RMK A01 T01921043  RH  020%=      5-min Rain = 0
KPG1 122105Z 22013KT 19/M05 A3012 RMK A01 T01921047  RH  019%=      5-min Rain = 0
KPG1 122106Z 23012KT 19/M05 A3012 RMK A01 T01891049  RH  020%=      5-min Rain = 0
KPG1 122107Z 20010KT 19/M05 A3012 RMK A01 T01871049  RH  020%=      5-min Rain = 0
KPG1 122108Z 21013KT 19/M05 A3011 RMK A01 T01891047  RH  020%=      5-min Rain = 0
KPG1 122109Z 21011KT 19/M05 A3011 RMK A01 T01911047  RH  020%=      5-min Rain = 0
KPG1 122110Z 22010KT 19/M05 A3011 RMK A01 T01911048  RH  019%=      5-min Rain = 0
KPG1 122111Z 22010KT 19/M05 A3011 RMK A01 T01901048  RH  020%=      5-min Rain = 0
KPG1 122112Z 20010KT 19/M05 A3011 RMK A01 T01891049  RH  019%=      5-min Rain = 0
KPG1 122113Z 21008KT 19/M05 A3011 RMK A01 T01891049  RH  020%=      5-min Rain = 0
KPG1 122114Z 22009KT 19/M05 A3011 RMK A01 T01891049  RH  019%=      5-min Rain = 0
KPG1 122115Z 22011KT 19/M05 A3011 RMK A01 T01891050  RH  019%=      5-min Rain = 0
KPG1 122116Z 21013KT 19/M05 A3011 RMK A01 T01901049  RH  019%=      5-min Rain = 0
KPG1 122117Z 21015KT 19/M05 A3011 RMK A01 T01911048  RH  019%=      5-min Rain = 0
KPG1 122118Z 22015KT 19/M05 A3011 RMK A01 T01911048  RH  019%=      5-min Rain = 0
KPG1 122119Z 22013KT 19/M05 A3011 RMK A01 T01911049  RH  019%=      5-min Rain = 0
KPG1 122120Z 22012KT 19/M05 A3011 RMK A01 T01901050  RH  019%=      5-min Rain = 0
KPG1 122121Z 22010G15KT 19/M05 A3011 RMK A01 T01891051  RH  019%=      5-min Rain = 0
KPG1 122122Z 21013KT 19/M05 A3011 RMK A01 T01901049  RH  019%=      5-min Rain = 0
KPG1 122123Z 21014KT 19/M05 A3011 RMK A01 T01901051  RH  019%=      5-min Rain = 0
KPG1 122124Z 21012KT 19/M05 A3011 RMK A01 T01901051  RH  019%=      5-min Rain = 0
KPG1 122125Z 22012KT 19/M05 A3011 RMK A01 T01901049  RH  019%=      5-min Rain = 0
KPG1 122126Z 21011KT 19/M05 A3011 RMK A01 T01911048  RH  019%=      5-min Rain = 0
KPG1 122127Z 22009KT 19/M05 A3011 RMK A01 T01911048  RH  019%=      5-min Rain = 0
KPG1 122128Z 21009KT 19/M05 A3011 RMK A01 T01891048  RH  020%=      5-min Rain = 0
KPG1 122129Z 19009KT 19/M05 A3011 RMK A01 T01891048  RH  020%=      5-min Rain = 0
KPG1 122130Z 19010KT 19/M05 A3011 RMK A01 T01891051  RH  019%=      5-min Rain = 0
KPG1 122131Z 20006KT 19/M05 A3011 RMK A01 T01891051  RH  019%=      5-min Rain = 0
KPG1 122132Z 22009G16KT 19/M05 A3011 RMK A01 T01911049  RH  019%=      5-min Rain = 0
KPG1 122133Z 20013KT 19/M05 A301 RMK A01 T01931052  RH  019%=      5-min Rain = 0
KPG1 122134Z 20012KT 19/M05 A3011 RMK A01 T01931053  RH  018%=      5-min Rain = 0
KPG1 122135Z 20012KT 19/M06 A301 RMK A01 T01931055  RH  018%=      5-min Rain = 0
KPG1 122136Z 21013KT 19/M06 A301 RMK A01 T01931055  RH  018%=      5-min Rain = 0
KPG1 122137Z 21013KT 19/M05 A301 RMK A01 T01941054  RH  018%=      5-min Rain = 0
KPG1 122138Z 20013KT 19/M06 A301 RMK A01 T01941056  RH  018%=      5-min Rain = 0
KPG1 122139Z 20011KT 19/M06 A301 RMK A01 T01931059  RH  018%=      5-min Rain = 0
KPG1 122140Z 19010KT 19/M06 A301 RMK A01 T01921058  RH  018%=      5-min Rain = 0
KPG1 122141Z 20010KT 19/M06 A301 RMK A01 T01931059  RH  018%=      5-min Rain = 0
KPG1 122142Z 19009KT 19/M06 A301 RMK A01 T01931058  RH  018%=      5-min Rain = 0
KPG1 122143Z 19013KT 19/M06 A301 RMK A01 T01941059  RH  017%=      5-min Rain = 0
KPG1 122144Z 21010KT 20/M06 A301 RMK A01 T01951059  RH  017%=      5-min Rain = 0
KPG1 122145Z 23013KT 20/M06 A3011 RMK A01 T01961059  RH  017%=      5-min Rain = 0
KPG1 122146Z 23011KT 19/M06 A3011 RMK A01 T01941055  RH  018%=      5-min Rain = 0
KPG1 122147Z 23014KT 19/M05 A3011 RMK A01 T01931053  RH  018%=      5-min Rain = 0
KPG1 122148Z 22012KT 19/M05 A3011 RMK A01 T01931051  RH  019%=      5-min Rain = 0
KPG1 122149Z 23011KT 19/M05 A3011 RMK A01 T01941051  RH  019%=      5-min Rain = 0
KPG1 122150Z 23009KT 19/M05 A3011 RMK A01 T01941051  RH  019%=      5-min Rain = 0
KPG1 122151Z 24008KT 19/M05 A3011 RMK A01 T01941048  RH  019%=      5-min Rain = 0
KPG1 122152Z 23010KT 19/M05 A301 RMK A01 T01941045  RH  019%=      5-min Rain = 0
KPG1 122153Z 20011KT 20/M05 A301 RMK A01 T01961049  RH  019%=      5-min Rain = 0
KPG1 122154Z 21013KT 20/M06 A301 RMK A01 T01961055  RH  018%=      5-min Rain = 0
KPG1 122155Z 22011KT 20/M06 A301 RMK A01 T01961056  RH  018%=      5-min Rain = 0
KPG1 122156Z 24010KT 20/M05 A3011 RMK A01 T01961052  RH  018%=      5-min Rain = 0
KPG1 122157Z 23010KT 20/M05 A3011 RMK A01 T01971049  RH  019%=      5-min Rain = 0
KPG1 122158Z 23009KT 20/M05 A3011 RMK A01 T01971049  RH  019%=      5-min Rain = 0
KPG1 122159Z 22008KT 20/M05 A3011 RMK A01 T01961049  RH  019%=      5-min Rain = 0
KPG1 122200Z 24010KT 20/M05 A3011 RMK A01 T01951050  RH  019%=      5-min Rain = 0
KPG1 122201Z 24008KT 19/M05 A3011 RMK A01 T01941050  RH  019%=      5-min Rain = 0
KPG1 122202Z 23007KT 19/M05 A301 RMK A01 T01931050  RH  019%=      5-min Rain = 0
KPG1 122203Z 23011KT 19/M05 A301 RMK A01 T01941048  RH  019%=      5-min Rain = 0
KPG1 122204Z 23010KT 20/M05 A301 RMK A01 T01971048  RH  019%=      5-min Rain = 0
KPG1 122205Z 22011KT 20/M05 A301 RMK A01 T01981050  RH  018%=      5-min Rain = 0
KPG1 122206Z 21010KT 20/M05 A301 RMK A01 T01971052  RH  018%=      5-min Rain = 0
KPG1 122207Z 22013KT 20/M05 A301 RMK A01 T01981052  RH  018%=      5-min Rain = 0
KPG1 122208Z 21011KT 20/M05 A301 RMK A01 T01981051  RH  018%=      5-min Rain = 0
KPG1 122209Z 21011KT 20/M05 A301 RMK A01 T01991052  RH  018%=      5-min Rain = 0
KPG1 122210Z 21013KT 20/M05 A301 RMK A01 T01981054  RH  018%=      5-min Rain = 0
KPG1 122211Z 22015KT 20/M05 A301 RMK A01 T01981053  RH  018%=      5-min Rain = 0
KPG1 122212Z 23012KT 20/M05 A301 RMK A01 T01981053  RH  018%=      5-min Rain = 0
KPG1 122213Z 22011KT 20/M05 A301 RMK A01 T01981053  RH  018%=      5-min Rain = 0
KPG1 122214Z 23010KT 20/M05 A301 RMK A01 T01971052  RH  018%=      5-min Rain = 0
KPG1 122215Z 23009KT 20/M05 A301 RMK A01 T01971051  RH  018%=      5-min Rain = 0
KPG1 122216Z 23009KT 20/M05 A301 RMK A01 T01981050  RH  018%=      5-min Rain = 0
KPG1 122217Z 21011KT 20/M05 A301 RMK A01 T01981051  RH  018%=      5-min Rain = 0
KPG1 122218Z 19010KT 20/M05 A301 RMK A01 T01981052  RH  018%=      5-min Rain = 0
KPG1 122219Z 22015KT 20/M05 A301 RMK A01 T01971052  RH  018%=      5-min Rain = 0
KPG1 122220Z 21014KT 20/M05 A301 RMK A01 T01971052  RH  018%=      5-min Rain = 0
KPG1 122221Z 21011KT 20/M05 A301 RMK A01 T01971051  RH  018%=      5-min Rain = 0
KPG1 122222Z 21011KT 20/M05 A301 RMK A01 T01961051  RH  018%=      5-min Rain = 0
KPG1 122223Z 22010KT 20/M05 A301 RMK A01 T01961051  RH  018%=      5-min Rain = 0
KPG1 122224Z 23014KT 20/M05 A301 RMK A01 T01971052  RH  018%=      5-min Rain = 0
KPG1 122225Z 21012KT 20/M05 A301 RMK A01 T01971052  RH  018%=      5-min Rain = 0
KPG1 122226Z 22011KT 20/M05 A301 RMK A01 T01971053  RH  018%=      5-min Rain = 0
KPG1 122227Z 20010KT 20/M05 A301 RMK A01 T01981052  RH  018%=      5-min Rain = 0
KPG1 122228Z 20010KT 20/M05 A301 RMK A01 T01991052  RH  018%=      5-min Rain = 0
KPG1 122229Z 21010KT 20/M05 A301 RMK A01 T02001051  RH  018%=      5-min Rain = 0
KPG1 122230Z 22013KT 20/M05 A301 RMK A01 T02001051  RH  018%=      5-min Rain = 0
KPG1 122231Z 23011KT 20/M05 A301 RMK A01 T01991052  RH  018%=      5-min Rain = 0
KPG1 122232Z 22012KT 20/M05 A301 RMK A01 T01981053  RH  018%=      5-min Rain = 0
KPG1 122233Z 22011KT 20/M05 A301 RMK A01 T01971053  RH  018%=      5-min Rain = 0
KPG1 122234Z 22012KT 20/M05 A301 RMK A01 T01981054  RH  018%=      5-min Rain = 0
KPG1 122235Z 22012KT 20/M05 A301 RMK A01 T01971054  RH  018%=      5-min Rain = 0
KPG1 122236Z 22010KT 20/M05 A301 RMK A01 T01971054  RH  018%=      5-min Rain = 0
KPG1 122237Z 21011KT 20/M05 A301 RMK A01 T01971053  RH  018%=      5-min Rain = 0
KPG1 122238Z 21011KT 20/M05 A301 RMK A01 T01971053  RH  018%=      5-min Rain = 0
KPG1 122239Z 20013KT 20/M05 A301 RMK A01 T01971052  RH  018%=      5-min Rain = 0
KPG1 122240Z 19012KT 20/M05 A301 RMK A01 T01961054  RH  018%=      5-min Rain = 0
KPG1 122241Z 20012KT 20/M05 A301 RMK A01 T01951054  RH  018%=      5-min Rain = 0
KPG1 122242Z 19010KT 19/M06 A301 RMK A01 T01941055  RH  018%=      5-min Rain = 0
KPG1 122243Z 20010KT 19/M05 A301 RMK A01 T01941054  RH  018%=      5-min Rain = 0
KPG1 122244Z 22010KT 19/M05 A301 RMK A01 T01941054  RH  018%=      5-min Rain = 0
KPG1 122245Z 20009KT 20/M05 A301 RMK A01 T01951053  RH  018%=      5-min Rain = 0
KPG1 122246Z 20009KT 20/M05 A301 RMK A01 T01961053  RH  018%=      5-min Rain = 0
KPG1 122247Z 20009KT 20/M05 A301 RMK A01 T01961052  RH  018%=      5-min Rain = 0
KPG1 122248Z 19007KT 20/M05 A301 RMK A01 T01961052  RH  018%=      5-min Rain = 0
KPG1 122249Z 19006KT 20/M05 A301 RMK A01 T01961052  RH  018%=      5-min Rain = 0
KPG1 122250Z 21009KT 20/M05 A301 RMK A01 T01961052  RH  018%=      5-min Rain = 0
KPG1 122251Z 22008KT 20/M05 A301 RMK A01 T01961051  RH  018%=      5-min Rain = 0
KPG1 122252Z 22007KT 20/M05 A301 RMK A01 T01971051  RH  018%=      5-min Rain = 0
KPG1 122253Z 20008KT 20/M05 A301 RMK A01 T01971050  RH  018%=      5-min Rain = 0
KPG1 122254Z 20009KT 20/M05 A3011 RMK A01 T01971050  RH  018%=      5-min Rain = 0
KPG1 122255Z 21009KT 20/M05 A3011 RMK A01 T01961051  RH  018%=      5-min Rain = 0
KPG1 122256Z 21007KT 20/M05 A3011 RMK A01 T01951052  RH  018%=      5-min Rain = 0
KPG1 122257Z 20009KT 20/M05 A3011 RMK A01 T01951050  RH  019%=      5-min Rain = 0
KPG1 122258Z 21008KT 20/M05 A3011 RMK A01 T01951051  RH  018%=      5-min Rain = 0
KPG1 122259Z 21009KT 20/M05 A3011 RMK A01 T01951051  RH  018%=      5-min Rain = 0
KPG1 122300Z 19009KT 20/M05 A3011 RMK A01 T01951051  RH  018%=      5-min Rain = 0
KPG1 122301Z 19010KT 20/M05 A3011 RMK A01 T01951052  RH  018%=      5-min Rain = 0
KPG1 122302Z 19010KT 19/M05 A3011 RMK A01 T01941052  RH  018%=      5-min Rain = 0
KPG1 122303Z 20009KT 19/M05 A3011 RMK A01 T01941052  RH  018%=      5-min Rain = 0
KPG1 122304Z 20006KT 19/M05 A3011 RMK A01 T01941053  RH  018%=      5-min Rain = 0
KPG1 122305Z 21006KT 19/M05 A3011 RMK A01 T01941051  RH  019%=      5-min Rain = 0
KPG1 122306Z 21007KT 20/M05 A3011 RMK A01 T01961051  RH  018%=      5-min Rain = 0
KPG1 122307Z 20008KT 20/M05 A3011 RMK A01 T01961052  RH  018%=      5-min Rain = 0
KPG1 122308Z 20007KT 20/M05 A3011 RMK A01 T01961052  RH  018%=      5-min Rain = 0
KPG1 122309Z 19008KT 20/M05 A3011 RMK A01 T01951052  RH  018%=      5-min Rain = 0
KPG1 122310Z 21008KT 20/M05 A3011 RMK A01 T01951051  RH  018%=      5-min Rain = 0
KPG1 122311Z 21008KT 20/M05 A3011 RMK A01 T01951052  RH  018%=      5-min Rain = 0
KPG1 122312Z 21006KT 20/M05 A3011 RMK A01 T01951053  RH  018%=      5-min Rain = 0
KPG1 122313Z 23007KT 20/M06 A3011 RMK A01 T01961055  RH  018%=      5-min Rain = 0
KPG1 122314Z 22009KT 20/M06 A3011 RMK A01 T01971061  RH  017%=      5-min Rain = 0
KPG1 122315Z 22009KT 20/M07 A3011 RMK A01 T01981066  RH  016%=      5-min Rain = 0
KPG1 122316Z 22007KT 20/M07 A3011 RMK A01 T01971066  RH  016%=      5-min Rain = 0
KPG1 122317Z 24008KT 20/M07 A3011 RMK A01 T01961067  RH  016%=      5-min Rain = 0
KPG1 122318Z 23009KT 20/M07 A3011 RMK A01 T01951066  RH  016%=      5-min Rain = 0
KPG1 122319Z 24009KT 19/M07 A3011 RMK A01 T01941065  RH  017%=      5-min Rain = 0
KPG1 122320Z 24009KT 19/M06 A3011 RMK A01 T01931064  RH  017%=      5-min Rain = 0
KPG1 122321Z 24007KT 19/M06 A3011 RMK A01 T01921063  RH  017%=      5-min Rain = 0
KPG1 122322Z 24007KT 19/M06 A3011 RMK A01 T01911063  RH  017%=      5-min Rain = 0
KPG1 122323Z 24009KT 19/M06 A3011 RMK A01 T01901062  RH  017%=      5-min Rain = 0
KPG1 122324Z 24008KT 19/M06 A3011 RMK A01 T01901061  RH  018%=      5-min Rain = 0
KPG1 122325Z 23007KT 19/M06 A3011 RMK A01 T01891061  RH  018%=      5-min Rain = 0
KPG1 122326Z 24007KT 19/M06 A3011 RMK A01 T01891060  RH  018%=      5-min Rain = 0
KPG1 122327Z 23007KT 19/M06 A3011 RMK A01 T01891060  RH  018%=      5-min Rain = 0
KPG1 122328Z 23008KT 19/M06 A3011 RMK A01 T01891059  RH  018%=      5-min Rain = 0
KPG1 122329Z 21008KT 19/M06 A3011 RMK A01 T01901059  RH  018%=      5-min Rain = 0
KPG1 122330Z 21008KT 19/M06 A3011 RMK A01 T01901059  RH  018%=      5-min Rain = 0
KPG1 122331Z 20006KT 19/M06 A3011 RMK A01 T01901059  RH  018%=      5-min Rain = 0
KPG1 122332Z 19005KT 19/M06 A3011 RMK A01 T01911057  RH  018%=      5-min Rain = 0
KPG1 122333Z 19005KT 19/M06 A3011 RMK A01 T01901058  RH  018%=      5-min Rain = 0
KPG1 122334Z 19006KT 19/M06 A3011 RMK A01 T01901058  RH  018%=      5-min Rain = 0
KPG1 122335Z 19006KT 19/M06 A3011 RMK A01 T01901058  RH  018%=      5-min Rain = 0
KPG1 122336Z 17006KT 19/M06 A3011 RMK A01 T01901055  RH  018%=      5-min Rain = 0
KPG1 122337Z 16007KT 19/M04 A3011 RMK A01 T01881043  RH  021%=      5-min Rain = 0
KPG1 122338Z 17008KT 19/M04 A3011 RMK A01 T01851043  RH  021%=      5-min Rain = 0
KPG1 122339Z 17009KT 18/M04 A3011 RMK A01 T01831040  RH  022%=      5-min Rain = 0
KPG1 122340Z 17009KT 18/M04 A3011 RMK A01 T01811038  RH  022%=      5-min Rain = 0
KPG1 122341Z 17009KT 18/M04 A3011 RMK A01 T01791037  RH  023%=      5-min Rain = 0
KPG1 122342Z 17008KT 18/M04 A3011 RMK A01 T01771036  RH  023%=      5-min Rain = 0
KPG1 122343Z 17009KT 18/M04 A3011 RMK A01 T01761036  RH  023%=      5-min Rain = 0
KPG1 122344Z 16009KT 18/M04 A3011 RMK A01 T01751036  RH  023%=      5-min Rain = 0
KPG1 122345Z 17009KT 18/M04 A3011 RMK A01 T01751036  RH  024%=      5-min Rain = 0
KPG1 122346Z 16009KT 17/M04 A3011 RMK A01 T01741035  RH  024%=      5-min Rain = 0
KPG1 122347Z 16012KT 17/M04 A3011 RMK A01 T01731035  RH  024%=      5-min Rain = 0
KPG1 122348Z 16012KT 17/M04 A3011 RMK A01 T01721036  RH  024%=      5-min Rain = 0
KPG1 122349Z 16010KT 17/M04 A3011 RMK A01 T01711036  RH  024%=      5-min Rain = 0
KPG1 122350Z 17008KT 17/M04 A3011 RMK A01 T01711035  RH  024%=      5-min Rain = 0
KPG1 122351Z 17007KT 17/M04 A3011 RMK A01 T01701035  RH  024%=      5-min Rain = 0
KPG1 122352Z 17007KT 17/M04 A3011 RMK A01 T01691035  RH  024%=      5-min Rain = 0
KPG1 122353Z 16009KT 17/M04 A3011 RMK A01 T01691035  RH  025%=      5-min Rain = 0
KPG1 122354Z 16010KT 17/M04 A3011 RMK A01 T01681035  RH  025%=      5-min Rain = 0
KPG1 122355Z 16009KT 17/M04 A3011 RMK A01 T01671036  RH  025%=      5-min Rain = 0
KPG1 122356Z 16008KT 17/M04 A3011 RMK A01 T01671036  RH  025%=      5-min Rain = 0
KPG1 122357Z 17009KT 17/M04 A3011 RMK A01 T01671036  RH  025%=      5-min Rain = 0
KPG1 122358Z 16007KT 17/M04 A3011 RMK A01 T01671036  RH  025%=      5-min Rain = 0
KPG1 122359Z 17008KT 17/M04 A3011 RMK A01 T01661036  RH  025%=      5-min Rain = 0
KPG1 130000Z 16008KT 17/M04 A3011 RMK A01 T01661036  RH  025%=      5-min Rain = 0
KPG1 130001Z 16008KT 17/M04 A3011 RMK A01 T01661036  RH  025%=      5-min Rain = 0
KPG1 130002Z 16008KT 17/M04 A3011 RMK A01 T01651036  RH  025%=      5-min Rain = 0
KPG1 130003Z 16008KT 16/M04 A3011 RMK A01 T01641036  RH  025%=      5-min Rain = 0
KPG1 130004Z 16010KT 16/M04 A3011 RMK A01 T01631037  RH  025%=      5-min Rain = 0
KPG1 130005Z 17011KT 16/M04 A3011 RMK A01 T01631036  RH  025%=      5-min Rain = 0
KPG1 130006Z 17008KT 16/M04 A3011 RMK A01 T01621037  RH  025%=      5-min Rain = 0
KPG1 130007Z 18007KT 16/M04 A3011 RMK A01 T01621037  RH  025%=      5-min Rain = 0
KPG1 130008Z 18007KT 16/M04 A3011 RMK A01 T01621037  RH  025%=      5-min Rain = 0
KPG1 130009Z 18007KT 16/M04 A3012 RMK A01 T01621037  RH  025%=      5-min Rain = 0
KPG1 130010Z 18009KT 16/M04 A3012 RMK A01 T01611037  RH  025%=      5-min Rain = 0
KPG1 130011Z 18009KT 16/M04 A3012 RMK A01 T01601037  RH  026%=      5-min Rain = 0
KPG1 130012Z 18007KT 16/M04 A3012 RMK A01 T01591038  RH  026%=      5-min Rain = 0
KPG1 130013Z 18008KT 16/M04 A3012 RMK A01 T01591038  RH  026%=      5-min Rain = 0
KPG1 130014Z 19008KT 16/M04 A3012 RMK A01 T01591038  RH  026%=      5-min Rain = 0
KPG1 130015Z 19008KT 16/M04 A3012 RMK A01 T01591038  RH  026%=      5-min Rain = 0
KPG1 130016Z 18008KT 16/M04 A3012 RMK A01 T01581038  RH  026%=      5-min Rain = 0
KPG1 130017Z 18008KT 16/M04 A3012 RMK A01 T01571038  RH  026%=      5-min Rain = 0
KPG1 130018Z 19008KT 16/M04 A3012 RMK A01 T01571038  RH  026%=      5-min Rain = 0
KPG1 130019Z 19008KT 16/M04 A3012 RMK A01 T01561038  RH  026%=      5-min Rain = 0
KPG1 130020Z 20008KT 16/M04 A3012 RMK A01 T01571039  RH  026%=      5-min Rain = 0
KPG1 130021Z 20007KT 16/M04 A3012 RMK A01 T01571039  RH  026%=      5-min Rain = 0
KPG1 130022Z 20007KT 16/M04 A3012 RMK A01 T01571039  RH  026%=      5-min Rain = 0
KPG1 130023Z 19006KT 16/M04 A3012 RMK A01 T01571038  RH  026%=      5-min Rain = 0
KPG1 130024Z 18007KT 16/M04 A3012 RMK A01 T01561039  RH  026%=      5-min Rain = 0
KPG1 130025Z 18007KT 16/M04 A3012 RMK A01 T01551039  RH  026%=      5-min Rain = 0
KPG1 130026Z 18008KT 15/M04 A3012 RMK A01 T01541039  RH  026%=      5-min Rain = 0
KPG1 130027Z 18008KT 15/M04 A3012 RMK A01 T01541039  RH  026%=      5-min Rain = 0
KPG1 130028Z 19008KT 15/M04 A3012 RMK A01 T01531039  RH  026%=      5-min Rain = 0
KPG1 130029Z 19007KT 15/M04 A3012 RMK A01 T01531039  RH  026%=      5-min Rain = 0
KPG1 130030Z 18007KT 15/M04 A3012 RMK A01 T01521040  RH  026%=      5-min Rain = 0
KPG1 130031Z 19006KT 15/M04 A3012 RMK A01 T01521040  RH  026%=      5-min Rain = 0
KPG1 130032Z 18007KT 15/M04 A3012 RMK A01 T01521040  RH  026%=      5-min Rain = 0
KPG1 130033Z 17008KT 15/M04 A3012 RMK A01 T01511040  RH  027%=      5-min Rain = 0
KPG1 130034Z 17010KT 15/M04 A3012 RMK A01 T01501040  RH  027%=      5-min Rain = 0
KPG1 130035Z 17009KT 15/M04 A3012 RMK A01 T01501041  RH  027%=      5-min Rain = 0
KPG1 130036Z 17008KT 15/M04 A3012 RMK A01 T01511041  RH  026%=      5-min Rain = 0
KPG1 130037Z 18008KT 15/M04 A3012 RMK A01 T01511041  RH  026%=      5-min Rain = 0
KPG1 130038Z 17008KT 15/M04 A3012 RMK A01 T01511041  RH  026%=      5-min Rain = 0
KPG1 130039Z 17008KT 15/M04 A3012 RMK A01 T01501041  RH  026%=      5-min Rain = 0
KPG1 130040Z 17006KT 15/M04 A3012 RMK A01 T01501041  RH  027%=      5-min Rain = 0
KPG1 130041Z 18007KT 15/M04 A3012 RMK A01 T01491041  RH  027%=      5-min Rain = 0
KPG1 130042Z 18006KT 15/M04 A3012 RMK A01 T01471041  RH  027%=      5-min Rain = 0
KPG1 130043Z 18006KT 15/M04 A3012 RMK A01 T01471041  RH  027%=      5-min Rain = 0
KPG1 130044Z 18006KT 15/M04 A3012 RMK A01 T01461041  RH  027%=      5-min Rain = 0
KPG1 130045Z 18006KT 15/M04 A3012 RMK A01 T01451042  RH  027%=      5-min Rain = 0
KPG1 130046Z 18005KT 14/M04 A3012 RMK A01 T01441042  RH  027%=      5-min Rain = 0
KPG1 130047Z 18006KT 14/M04 A3012 RMK A01 T01431042  RH  027%=      5-min Rain = 0
KPG1 130048Z 18006KT 14/M04 A3012 RMK A01 T01421042  RH  028%=      5-min Rain = 0
KPG1 130049Z 18006KT 14/M04 A3012 RMK A01 T01421042  RH  028%=      5-min Rain = 0
KPG1 130050Z 18006KT 14/M04 A3012 RMK A01 T01421042  RH  028%=      5-min Rain = 0
KPG1 130051Z 17005KT 14/M04 A3012 RMK A01 T01411042  RH  028%=      5-min Rain = 0
KPG1 130052Z 17005KT 14/M04 A3012 RMK A01 T01401043  RH  028%=      5-min Rain = 0
KPG1 130053Z 17005KT 14/M04 A3012 RMK A01 T01401042  RH  028%=      5-min Rain = 0
KPG1 130054Z 17005KT 14/M04 A3013 RMK A01 T01401042  RH  028%=      5-min Rain = 0
KPG1 130055Z 18004KT 14/M04 A3013 RMK A01 T01391042  RH  028%=      5-min Rain = 0
KPG1 130056Z 18005KT 14/M04 A3013 RMK A01 T01381042  RH  028%=      5-min Rain = 0
KPG1 130057Z 19004KT 14/M04 A3013 RMK A01 T01371043  RH  028%=      5-min Rain = 0
KPG1 130058Z 18005KT 14/M04 A3013 RMK A01 T01381043  RH  028%=      5-min Rain = 0
KPG1 130059Z 19005KT 14/M04 A3013 RMK A01 T01371043  RH  028%=      5-min Rain = 0
KPG1 130100Z 20003KT 14/M04 A3013 RMK A01 T01371043  RH  028%=      5-min Rain = 0
KPG1 130101Z 19004KT 14/M04 A3013 RMK A01 T01361043  RH  029%=      5-min Rain = 0
KPG1 130102Z 17005KT 14/M04 A3013 RMK A01 T01361043  RH  028%=      5-min Rain = 0
KPG1 130103Z 20005KT 14/M04 A3013 RMK A01 T01381043  RH  028%=      5-min Rain = 0
KPG1 130104Z 20005KT 14/M04 A3013 RMK A01 T01381043  RH  028%=      5-min Rain = 0
KPG1 130105Z 22004KT 14/M04 A3013 RMK A01 T01381044  RH  028%=      5-min Rain = 0
KPG1 130106Z 23004KT 14/M04 A3013 RMK A01 T01381044  RH  028%=      5-min Rain = 0
KPG1 130107Z 20005KT 14/M04 A3013 RMK A01 T01361044  RH  028%=      5-min Rain = 0
KPG1 130108Z 20003KT 14/M04 A3013 RMK A01 T01361044  RH  028%=      5-min Rain = 0
KPG1 130109Z 23004KT 14/M04 A3013 RMK A01 T01361044  RH  028%=      5-min Rain = 0
KPG1 130110Z 21003KT 14/M04 A3013 RMK A01 T01351044  RH  029%=      5-min Rain = 0
KPG1 130111Z 20005KT 14/M04 A3013 RMK A01 T01351044  RH  029%=      5-min Rain = 0
KPG1 130112Z 21004KT 14/M04 A3013 RMK A01 T01351044  RH  029%=      5-min Rain = 0
KPG1 130113Z 21003KT 14/M04 A3013 RMK A01 T01351044  RH  029%=      5-min Rain = 0
KPG1 130114Z 22003KT 13/M04 A3013 RMK A01 T01341044  RH  029%=      5-min Rain = 0
KPG1 130115Z 21004KT 13/M04 A3013 RMK A01 T01341044  RH  029%=      5-min Rain = 0
KPG1 130116Z 20004KT 13/M05 A3014 RMK A01 T01341045  RH  029%=      5-min Rain = 0
KPG1 130117Z 21003KT 14/M04 A3014 RMK A01 T01351044  RH  029%=      5-min Rain = 0
KPG1 130118Z 18003KT 14/M04 A3014 RMK A01 T01351044  RH  029%=      5-min Rain = 0
KPG1 130119Z 22002KT 14/M05 A3014 RMK A01 T01361045  RH  028%=      5-min Rain = 0
KPG1 130120Z 22004KT 14/M05 A3014 RMK A01 T01361045  RH  028%=      5-min Rain = 0
KPG1 130121Z 23004KT 14/M05 A3014 RMK A01 T01361045  RH  028%=      5-min Rain = 0
KPG1 130122Z 22004KT 14/M05 A3014 RMK A01 T01361045  RH  028%=      5-min Rain = 0
KPG1 130123Z 21004KT 14/M05 A3014 RMK A01 T01361045  RH  028%=      5-min Rain = 0
KPG1 130124Z 23005KT 14/M05 A3014 RMK A01 T01361045  RH  028%=      5-min Rain = 0
KPG1 130125Z 24005KT 14/M05 A3014 RMK A01 T01361045  RH  028%=      5-min Rain = 0
KPG1 130126Z 21006KT 14/M05 A3014 RMK A01 T01351045  RH  028%=      5-min Rain = 0
KPG1 130127Z 21005KT 14/M05 A3014 RMK A01 T01361045  RH  028%=      5-min Rain = 0
KPG1 130128Z 19005KT 14/M05 A3014 RMK A01 T01361045  RH  028%=      5-min Rain = 0
KPG1 130129Z 19005KT 14/M05 A3014 RMK A01 T01361046  RH  028%=      5-min Rain = 0
KPG1 130130Z 18005KT 14/M05 A3014 RMK A01 T01371045  RH  028%=      5-min Rain = 0
KPG1 130131Z 19005KT 14/M05 A3014 RMK A01 T01381045  RH  028%=      5-min Rain = 0
KPG1 130132Z 21004KT 14/M05 A3014 RMK A01 T01361045  RH  028%=      5-min Rain = 0
KPG1 130133Z 20004KT 13/M05 A3014 RMK A01 T01341045  RH  029%=      5-min Rain = 0
KPG1 130134Z 19005KT 13/M05 A3014 RMK A01 T01321045  RH  029%=      5-min Rain = 0
KPG1 130135Z 18006KT 13/M05 A3014 RMK A01 T01311045  RH  029%=      5-min Rain = 0
KPG1 130136Z 19005KT 13/M05 A3014 RMK A01 T01301046  RH  029%=      5-min Rain = 0
KPG1 130137Z 20004KT 13/M05 A3014 RMK A01 T01301045  RH  029%=      5-min Rain = 0
KPG1 130138Z 19005KT 13/M05 A3014 RMK A01 T01301045  RH  029%=      5-min Rain = 0
KPG1 130139Z 19005KT 13/M05 A3014 RMK A01 T01311045  RH  029%=      5-min Rain = 0
KPG1 130140Z 19005KT 13/M05 A3014 RMK A01 T01321045  RH  029%=      5-min Rain = 0
KPG1 130141Z 19005KT 13/M05 A3014 RMK A01 T01331045  RH  029%=      5-min Rain = 0
KPG1 130142Z 20005KT 13/M05 A3014 RMK A01 T01331045  RH  029%=      5-min Rain = 0
KPG1 130143Z 20005KT 13/M05 A3014 RMK A01 T01341045  RH  029%=      5-min Rain = 0
KPG1 130144Z 21005KT 13/M05 A3014 RMK A01 T01341045  RH  028%=      5-min Rain = 0
KPG1 130145Z 20005KT 13/M05 A3014 RMK A01 T01331046  RH  029%=      5-min Rain = 0
KPG1 130146Z 20006KT 13/M05 A3014 RMK A01 T01311046  RH  029%=      5-min Rain = 0
KPG1 130147Z 20005KT 13/M05 A3014 RMK A01 T01301045  RH  029%=      5-min Rain = 0
KPG1 130148Z 23005KT 13/M05 A3014 RMK A01 T01291045  RH  029%=      5-min Rain = 0
KPG1 130149Z 24005KT 13/M05 A3015 RMK A01 T01281045  RH  030%=      5-min Rain = 0
KPG1 130150Z 21005KT 13/M05 A3015 RMK A01 T01261045  RH  030%=      5-min Rain = 0
KPG1 130151Z 22004KT 13/M05 A3015 RMK A01 T01261045  RH  030%=      5-min Rain = 0
KPG1 130152Z 21004KT 13/M05 A3015 RMK A01 T01271045  RH  030%=      5-min Rain = 0
KPG1 130153Z 23004KT 13/M05 A3015 RMK A01 T01281045  RH  030%=      5-min Rain = 0
KPG1 130154Z 23004KT 13/M05 A3015 RMK A01 T01281045  RH  030%=      5-min Rain = 0
KPG1 130155Z 23004KT 13/M05 A3015 RMK A01 T01271045  RH  030%=      5-min Rain = 0
KPG1 130156Z 25004KT 13/M05 A3015 RMK A01 T01261045  RH  030%=      5-min Rain = 0
KPG1 130157Z 24005KT 13/M05 A3015 RMK A01 T01261045  RH  030%=      5-min Rain = 0
KPG1 130158Z 22004KT 13/M05 A3015 RMK A01 T01271045  RH  030%=      5-min Rain = 0
KPG1 130159Z 20004KT 13/M05 A3015 RMK A01 T01291045  RH  029%=      5-min Rain = 0
KPG1 130200Z 19003KT 13/M05 A3015 RMK A01 T01321045  RH  029%=      5-min Rain = 0
KPG1 130201Z 19003KT 13/M05 A3015 RMK A01 T01341045  RH  028%=      5-min Rain = 0
KPG1 130202Z 20004KT 14/M05 A3015 RMK A01 T01351046  RH  028%=      5-min Rain = 0
KPG1 130203Z 21004KT 13/M05 A3015 RMK A01 T01341046  RH  028%=      5-min Rain = 0
KPG1 130204Z 20003KT 13/M05 A3015 RMK A01 T01321046  RH  029%=      5-min Rain = 0
KPG1 130205Z 18003KT 13/M05 A3015 RMK A01 T01321045  RH  029%=      5-min Rain = 0
KPG1 130206Z 17004KT 13/M05 A3015 RMK A01 T01321046  RH  029%=      5-min Rain = 0
KPG1 130207Z 18002KT 13/M05 A3015 RMK A01 T01331046  RH  028%=      5-min Rain = 0
KPG1 130208Z 17003KT 13/M05 A3015 RMK A01 T01331045  RH  029%=      5-min Rain = 0
KPG1 130209Z 16003KT 13/M05 A3015 RMK A01 T01321046  RH  029%=      5-min Rain = 0
KPG1 130210Z 16003KT 13/M05 A3015 RMK A01 T01311046  RH  029%=      5-min Rain = 0
KPG1 130211Z 16003KT 13/M05 A3015 RMK A01 T01311046  RH  029%=      5-min Rain = 0
KPG1 130212Z 17003KT 13/M05 A3016 RMK A01 T01321046  RH  029%=      5-min Rain = 0
KPG1 130213Z 16003KT 13/M05 A3016 RMK A01 T01311046  RH  029%=      5-min Rain = 0
KPG1 130214Z 16003KT 13/M05 A3016 RMK A01 T01311046  RH  029%=      5-min Rain = 0
KPG1 130215Z 16003KT 13/M05 A3016 RMK A01 T01301046  RH  029%=      5-min Rain = 0
KPG1 130216Z 17004KT 13/M05 A3016 RMK A01 T01301046  RH  029%=      5-min Rain = 0
KPG1 130217Z 16004KT 13/M05 A3016 RMK A01 T01291046  RH  029%=      5-min Rain = 0
KPG1 130218Z 16005KT 13/M05 A3016 RMK A01 T01281045  RH  030%=      5-min Rain = 0
KPG1 130219Z 16005KT 13/M05 A3016 RMK A01 T01281046  RH  030%=      5-min Rain = 0
KPG1 130220Z 16005KT 13/M05 A3016 RMK A01 T01261046  RH  030%=      5-min Rain = 0
KPG1 130221Z 16005KT 13/M05 A3016 RMK A01 T01261046  RH  030%=      5-min Rain = 0
KPG1 130222Z 16006KT 13/M05 A3016 RMK A01 T01271045  RH  030%=      5-min Rain = 0
KPG1 130223Z 16005KT 13/M05 A3016 RMK A01 T01271045  RH  030%=      5-min Rain = 0
KPG1 130224Z 15005KT 13/M05 A3016 RMK A01 T01261045  RH  030%=      5-min Rain = 0
KPG1 130225Z 15005KT 13/M05 A3016 RMK A01 T01251046  RH  030%=      5-min Rain = 0
KPG1 130226Z 15005KT 13/M05 A3016 RMK A01 T01251045  RH  030%=      5-min Rain = 0
KPG1 130227Z 17004KT 13/M05 A3016 RMK A01 T01251045  RH  030%=      5-min Rain = 0
KPG1 130228Z 16003KT 12/M05 A3016 RMK A01 T01241045  RH  030%=      5-min Rain = 0
KPG1 130229Z 16004KT 12/M05 A3016 RMK A01 T01241045  RH  030%=      5-min Rain = 0
KPG1 130230Z 15003KT 13/M05 A3016 RMK A01 T01251045  RH  030%=      5-min Rain = 0
KPG1 130231Z 15002KT 13/M05 A3016 RMK A01 T01261045  RH  030%=      5-min Rain = 0
KPG1 130232Z 15003KT 13/M05 A3016 RMK A01 T01271045  RH  030%=      5-min Rain = 0
KPG1 130233Z 16003KT 13/M05 A3016 RMK A01 T01271045  RH  030%=      5-min Rain = 0
KPG1 130234Z 17002KT 13/M05 A3017 RMK A01 T01261045  RH  030%=      5-min Rain = 0
KPG1 130235Z 18002KT 13/M05 A3017 RMK A01 T01271045  RH  030%=      5-min Rain = 0
KPG1 130236Z 23002KT 13/M05 A3017 RMK A01 T01261045  RH  030%=      5-min Rain = 0
KPG1 130237Z 22001KT 13/M05 A3017 RMK A01 T01271045  RH  030%=      5-min Rain = 0
KPG1 130238Z 19002KT 13/M04 A3017 RMK A01 T01271044  RH  030%=      5-min Rain = 0
KPG1 130239Z 17003KT 13/M05 A3017 RMK A01 T01271045  RH  030%=      5-min Rain = 0
KPG1 130240Z 17003KT 13/M04 A3017 RMK A01 T01301044  RH  030%=      5-min Rain = 0
KPG1 130241Z 18003KT 13/M04 A3017 RMK A01 T01331044  RH  029%=      5-min Rain = 0
KPG1 130242Z 17004KT 14/M04 A3017 RMK A01 T01351044  RH  029%=      5-min Rain = 0
KPG1 130243Z 16004KT 14/M04 A3017 RMK A01 T01351044  RH  029%=      5-min Rain = 0
KPG1 130244Z 18001KT 13/M04 A3017 RMK A01 T01341044  RH  029%=      5-min Rain = 0
KPG1 130245Z 23002KT 13/M05 A3017 RMK A01 T01331045  RH  029%=      5-min Rain = 0
KPG1 130246Z 21002KT 13/M04 A3017 RMK A01 T01321044  RH  029%=      5-min Rain = 0
KPG1 130247Z 18002KT 13/M04 A3017 RMK A01 T01321044  RH  029%=      5-min Rain = 0
KPG1 130248Z 17003KT 13/M05 A3017 RMK A01 T01331045  RH  029%=      5-min Rain = 0
KPG1 130249Z 17002KT 14/M04 A3017 RMK A01 T01361044  RH  028%=      5-min Rain = 0
KPG1 130250Z 17003KT 14/M04 A3017 RMK A01 T01381044  RH  028%=      5-min Rain = 0
KPG1 130251Z 18002KT 14/M04 A3017 RMK A01 T01381044  RH  028%=      5-min Rain = 0
KPG1 130252Z 18002KT 14/M04 A3017 RMK A01 T01381044  RH  028%=      5-min Rain = 0
KPG1 130253Z 17003KT 14/M05 A3017 RMK A01 T01371045  RH  028%=      5-min Rain = 0
KPG1 130254Z 17003KT 14/M04 A3018 RMK A01 T01361044  RH  028%=      5-min Rain = 0
KPG1 130255Z 16003KT 14/M04 A3018 RMK A01 T01351044  RH  028%=      5-min Rain = 0
KPG1 130256Z 16002KT 13/M04 A3018 RMK A01 T01341044  RH  029%=      5-min Rain = 0
KPG1 130257Z 16002KT 13/M04 A3018 RMK A01 T01341044  RH  029%=      5-min Rain = 0
KPG1 130258Z 16002KT 13/M04 A3018 RMK A01 T01341044  RH  029%=      5-min Rain = 0
KPG1 130259Z 17002KT 13/M04 A3018 RMK A01 T01341044  RH  029%=      5-min Rain = 0
KPG1 130300Z 16002KT 13/M04 A3018 RMK A01 T01331044  RH  029%=      5-min Rain = 0
KPG1 130301Z 18001KT 13/M04 A3018 RMK A01 T01331044  RH  029%=      5-min Rain = 0
KPG1 130302Z 16002KT 13/M04 A3018 RMK A01 T01321044  RH  029%=      5-min Rain = 0
KPG1 130303Z 12001KT 13/M04 A3018 RMK A01 T01321044  RH  029%=      5-min Rain = 0
KPG1 130304Z 00000KT 13/M04 A3018 RMK A01 T01321044  RH  029%=      5-min Rain = 0
KPG1 130305Z 23001KT 13/M04 A3018 RMK A01 T01321044  RH  029%=      5-min Rain = 0
KPG1 130306Z 20001KT 13/M04 A3018 RMK A01 T01321044  RH  029%=      5-min Rain = 0
KPG1 130307Z 15000KT 13/M04 A3018 RMK A01 T01321044  RH  029%=      5-min Rain = 0
KPG1 130308Z 05001KT 13/M04 A3018 RMK A01 T01331044  RH  029%=      5-min Rain = 0
KPG1 130309Z 04001KT 13/M04 A3018 RMK A01 T01321044  RH  029%=      5-min Rain = 0
KPG1 130310Z 05002KT 13/M04 A3018 RMK A01 T01331044  RH  029%=      5-min Rain = 0
KPG1 130311Z 02001KT 13/M04 A3018 RMK A01 T01311044  RH  029%=      5-min Rain = 0
KPG1 130312Z 07003KT 13/M05 A3018 RMK A01 T01261046  RH  030%=      5-min Rain = 0
KPG1 130313Z 06003KT 12/M05 A3019 RMK A01 T01221046  RH  031%=      5-min Rain = 0
KPG1 130314Z 05003KT 12/M05 A3019 RMK A01 T01211045  RH  031%=      5-min Rain = 0
KPG1 130315Z 06003KT 12/M05 A3018 RMK A01 T01201045  RH  031%=      5-min Rain = 0
KPG1 130316Z 05001KT 12/M05 A3018 RMK A01 T01191045  RH  031%=      5-min Rain = 0
KPG1 130317Z 09002KT 12/M05 A3018 RMK A01 T01171045  RH  032%=      5-min Rain = 0
KPG1 130318Z 03002KT 12/M05 A3018 RMK A01 T01161045  RH  032%=      5-min Rain = 0
KPG1 130319Z 02002KT 12/M04 A3018 RMK A01 T01171044  RH  032%=      5-min Rain = 0
KPG1 130320Z 03002KT 12/M04 A3018 RMK A01 T01151044  RH  033%=      5-min Rain = 0
KPG1 130321Z 00002KT 11/M04 A3019 RMK A01 T01131044  RH  033%=      5-min Rain = 0
KPG1 130322Z 35003KT 11/M04 A3019 RMK A01 T01131043  RH  033%=      5-min Rain = 0
KPG1 130323Z 35004KT 11/M04 A3019 RMK A01 T01111044  RH  033%=      5-min Rain = 0
KPG1 130324Z 35004KT 11/M05 A3019 RMK A01 T01071045  RH  034%=      5-min Rain = 0
KPG1 130325Z 35004KT 10/M05 A3019 RMK A01 T01031046  RH  035%=      5-min Rain = 0
KPG1 130326Z 35003KT 10/M05 A3019 RMK A01 T01021045  RH  035%=      5-min Rain = 0
KPG1 130327Z 36003KT 10/M05 A3019 RMK A01 T01001045  RH  036%=      5-min Rain = 0
KPG1 130328Z 01002KT 10/M05 A3019 RMK A01 T01001045  RH  036%=      5-min Rain = 0
KPG1 130329Z 03003KT 10/M04 A3019 RMK A01 T00991044  RH  036%=      5-min Rain = 0
KPG1 130330Z 04003KT 10/M04 A3019 RMK A01 T01001044  RH  036%=      5-min Rain = 0
KPG1 130331Z 04004KT 10/M04 A3019 RMK A01 T01021043  RH  036%=      5-min Rain = 0
KPG1 130332Z 04005KT 10/M04 A3019 RMK A01 T01021043  RH  036%=      5-min Rain = 0
KPG1 130333Z 03007KT 10/M04 A3019 RMK A01 T01031044  RH  035%=      5-min Rain = 0
KPG1 130334Z 01007KT 11/M04 A3019 RMK A01 T01061043  RH  035%=      5-min Rain = 0
KPG1 130335Z 05006KT 11/M04 A3019 RMK A01 T01121041  RH  034%=      5-min Rain = 0
KPG1 130336Z 07009KT 12/M04 A3019 RMK A01 T01151042  RH  033%=      5-min Rain = 0
KPG1 130337Z 07009KT 12/M04 A3019 RMK A01 T01191043  RH  032%=      5-min Rain = 0
KPG1 130338Z 06013KT 12/M04 A3019 RMK A01 T01221044  RH  031%=      5-min Rain = 0
KPG1 130339Z 07014KT 12/M05 A3019 RMK A01 T01231045  RH  030%=      5-min Rain = 0
KPG1 130340Z 07011KT 12/M05 A302 RMK A01 T01241046  RH  030%=      5-min Rain = 0
KPG1 130341Z 07009KT 12/M05 A302 RMK A01 T01241047  RH  030%=      5-min Rain = 0
KPG1 130342Z 07013KT 12/M05 A302 RMK A01 T01241048  RH  030%=      5-min Rain = 0
KPG1 130343Z 07011KT 13/M05 A302 RMK A01 T01251048  RH  030%=      5-min Rain = 0
KPG1 130344Z 07014KT 13/M05 A302 RMK A01 T01251048  RH  030%=      5-min Rain = 0
KPG1 130345Z 07014KT 13/M05 A302 RMK A01 T01261048  RH  029%=      5-min Rain = 0
KPG1 130346Z 07013KT 13/M05 A302 RMK A01 T01271049  RH  029%=      5-min Rain = 0
KPG1 130347Z 07014KT 13/M05 A302 RMK A01 T01271049  RH  029%=      5-min Rain = 0
KPG1 130348Z 07014KT 13/M05 A302 RMK A01 T01261050  RH  029%=      5-min Rain = 0
KPG1 130349Z 07012KT 13/M05 A302 RMK A01 T01251050  RH  029%=      5-min Rain = 0
KPG1 130350Z 07013KT 13/M05 A302 RMK A01 T01251050  RH  029%=      5-min Rain = 0
KPG1 130351Z 06012KT 12/M05 A302 RMK A01 T01241050  RH  029%=      5-min Rain = 0
KPG1 130352Z 06010KT 12/M05 A302 RMK A01 T01231050  RH  029%=      5-min Rain = 0
KPG1 130353Z 06009KT 12/M05 A302 RMK A01 T01221051  RH  029%=      5-min Rain = 0
KPG1 130354Z 07010G15KT 12/M05 A302 RMK A01 T01211052  RH  029%=      5-min Rain = 0
KPG1 130355Z 07013KT 12/M05 A302 RMK A01 T01211053  RH  029%=      5-min Rain = 0
KPG1 130356Z 07013KT 12/M05 A302 RMK A01 T01211053  RH  029%=      5-min Rain = 0
KPG1 130357Z 07012KT 12/M05 A302 RMK A01 T01211054  RH  029%=      5-min Rain = 0
KPG1 130358Z 06012KT 12/M05 A302 RMK A01 T01201054  RH  029%=      5-min Rain = 0
KPG1 130359Z 06014KT 12/M06 A302 RMK A01 T01181055  RH  029%=      5-min Rain = 0
KPG1 130400Z 06013KT 12/M06 A302 RMK A01 T01181055  RH  029%=      5-min Rain = 0
KPG1 130401Z 06013KT 12/M06 A302 RMK A01 T01181055  RH  029%=      5-min Rain = 0
KPG1 130402Z 06013KT 12/M06 A302 RMK A01 T01171055  RH  029%=      5-min Rain = 0
KPG1 130403Z 06013KT 12/M06 A302 RMK A01 T01171056  RH  029%=      5-min Rain = 0
KPG1 130404Z 05010KT 12/M06 A302 RMK A01 T01161056  RH  030%=      5-min Rain = 0
KPG1 130405Z 05010KT 11/M06 A302 RMK A01 T01141056  RH  030%=      5-min Rain = 0
KPG1 130406Z 05011KT 11/M06 A3021 RMK A01 T01131056  RH  030%=      5-min Rain = 0
KPG1 130407Z 04010KT 11/M06 A3021 RMK A01 T01121056  RH  030%=      5-min Rain = 0
KPG1 130408Z 04012KT 11/M06 A3021 RMK A01 T01121056  RH  030%=      5-min Rain = 0
KPG1 130409Z 03011KT 11/M06 A3021 RMK A01 T01121057  RH  030%=      5-min Rain = 0
KPG1 130410Z 03011KT 11/M06 A3021 RMK A01 T01121058  RH  030%=      5-min Rain = 0
KPG1 130411Z 03012KT 11/M06 A3021 RMK A01 T01111058  RH  030%=      5-min Rain = 0
KPG1 130412Z 04011KT 11/M06 A3021 RMK A01 T01101058  RH  030%=      5-min Rain = 0
KPG1 130413Z 04011KT 11/M06 A3021 RMK A01 T01111058  RH  030%=      5-min Rain = 0
KPG1 130414Z 04012KT 11/M06 A3021 RMK A01 T01111058  RH  030%=      5-min Rain = 0
KPG1 130415Z 04012KT 11/M06 A3021 RMK A01 T01101058  RH  030%=      5-min Rain = 0
KPG1 130416Z 03011KT 11/M06 A3021 RMK A01 T01101058  RH  030%=      5-min Rain = 0
KPG1 130417Z 03011KT 11/M06 A3021 RMK A01 T01101059  RH  030%=      5-min Rain = 0
KPG1 130418Z 03011KT 11/M06 A3021 RMK A01 T01091059  RH  030%=      5-min Rain = 0
KPG1 130419Z 04012KT 11/M06 A3021 RMK A01 T01091059  RH  030%=      5-min Rain = 0
KPG1 130420Z 04011KT 11/M06 A3021 RMK A01 T01091060  RH  030%=      5-min Rain = 0
KPG1 130421Z 04011KT 11/M06 A3022 RMK A01 T01081060  RH  030%=      5-min Rain = 0
KPG1 130422Z 03011KT 11/M06 A3022 RMK A01 T01081060  RH  030%=      5-min Rain = 0
KPG1 130423Z 03010KT 11/M06 A3022 RMK A01 T01071061  RH  030%=      5-min Rain = 0
KPG1 130424Z 03011KT 11/M06 A3022 RMK A01 T01061061  RH  030%=      5-min Rain = 0
KPG1 130425Z 03012KT 11/M06 A3022 RMK A01 T01061061  RH  030%=      5-min Rain = 0
KPG1 130426Z 03012KT 11/M06 A3022 RMK A01 T01061061  RH  030%=      5-min Rain = 0
KPG1 130427Z 03012KT 11/M06 A3022 RMK A01 T01061061  RH  030%=      5-min Rain = 0
KPG1 130428Z 03013KT 11/M06 A3022 RMK A01 T01061061  RH  030%=      5-min Rain = 0
KPG1 130429Z 03012KT 11/M06 A3022 RMK A01 T01061061  RH  030%=      5-min Rain = 0
KPG1 130430Z 03012KT 11/M06 A3022 RMK A01 T01051061  RH  030%=      5-min Rain = 0
KPG1 130431Z 03012KT 11/M06 A3022 RMK A01 T01051062  RH  030%=      5-min Rain = 0
KPG1 130432Z 03012KT 11/M06 A3022 RMK A01 T01051062  RH  030%=      5-min Rain = 0
KPG1 130433Z 03012KT 10/M06 A3022 RMK A01 T01041062  RH  030%=      5-min Rain = 0
KPG1 130434Z 03012KT 11/M06 A3022 RMK A01 T01051062  RH  030%=      5-min Rain = 0
KPG1 130435Z 04013KT 11/M06 A3022 RMK A01 T01051062  RH  030%=      5-min Rain = 0
KPG1 130436Z 03013KT 10/M06 A3022 RMK A01 T01041063  RH  030%=      5-min Rain = 0
KPG1 130437Z 03013KT 10/M06 A3022 RMK A01 T01041063  RH  030%=      5-min Rain = 0
KPG1 130438Z 04012KT 10/M06 A3022 RMK A01 T01041063  RH  030%=      5-min Rain = 0
KPG1 130439Z 03011KT 10/M06 A3022 RMK A01 T01041063  RH  030%=      5-min Rain = 0
KPG1 130440Z 03011KT 10/M06 A3022 RMK A01 T01031063  RH  031%=      5-min Rain = 0
KPG1 130441Z 02011KT 10/M06 A3023 RMK A01 T01021063  RH  031%=      5-min Rain = 0
KPG1 130442Z 02011KT 10/M06 A3023 RMK A01 T01011064  RH  031%=      5-min Rain = 0
KPG1 130443Z 03012KT 10/M06 A3023 RMK A01 T01011064  RH  031%=      5-min Rain = 0
KPG1 130444Z 03012KT 10/M06 A3023 RMK A01 T01011064  RH  031%=      5-min Rain = 0
KPG1 130445Z 03012KT 10/M06 A3023 RMK A01 T01011064  RH  031%=      5-min Rain = 0
KPG1 130446Z 02012KT 10/M06 A3023 RMK A01 T01001064  RH  031%=      5-min Rain = 0
KPG1 130447Z 02014KT 10/M06 A3023 RMK A01 T01001064  RH  031%=      5-min Rain = 0
KPG1 130448Z 02013KT 10/M06 A3023 RMK A01 T00991064  RH  031%=      5-min Rain = 0
KPG1 130449Z 01013KT 10/M06 A3023 RMK A01 T01001064  RH  031%=      5-min Rain = 0
KPG1 130450Z 01013KT 10/M06 A3023 RMK A01 T01001063  RH  031%=      5-min Rain = 0
KPG1 130451Z 01013KT 10/M06 A3023 RMK A01 T01011063  RH  031%=      5-min Rain = 0
KPG1 130452Z 02013KT 10/M06 A3023 RMK A01 T01001064  RH  031%=      5-min Rain = 0
KPG1 130453Z 02012KT 10/M06 A3023 RMK A01 T01001064  RH  031%=      5-min Rain = 0
KPG1 130454Z 02013KT 10/M06 A3023 RMK A01 T00991064  RH  031%=      5-min Rain = 0
KPG1 130455Z 02013KT 10/M06 A3023 RMK A01 T00991064  RH  031%=      5-min Rain = 0
KPG1 130456Z 02013KT 10/M06 A3023 RMK A01 T00991064  RH  031%=      5-min Rain = 0
KPG1 130457Z 01013KT 10/M06 A3023 RMK A01 T00991064  RH  031%=      5-min Rain = 0
KPG1 130458Z 02014KT 10/M07 A3023 RMK A01 T00991065  RH  031%=      5-min Rain = 0
KPG1 130459Z 02014KT 10/M07 A3023 RMK A01 T00991065  RH  031%=      5-min Rain = 0
KPG1 130500Z 02013KT 10/M07 A3024 RMK A01 T01001065  RH  031%=      5-min Rain = 0
KPG1 130501Z 02013KT 10/M07 A3024 RMK A01 T01001065  RH  031%=      5-min Rain = 0
KPG1 130502Z 02014KT 10/M07 A3024 RMK A01 T01001065  RH  031%=      5-min Rain = 0
KPG1 130503Z 02012KT 10/M07 A3024 RMK A01 T00991065  RH  031%=      5-min Rain = 0
KPG1 130504Z 02013KT 10/M07 A3024 RMK A01 T00991065  RH  031%=      5-min Rain = 0
KPG1 130505Z 02013KT 10/M07 A3024 RMK A01 T00991065  RH  031%=      5-min Rain = 0
KPG1 130506Z 02013KT 10/M07 A3024 RMK A01 T01001065  RH  031%=      5-min Rain = 0
KPG1 130507Z 02012KT 10/M07 A3024 RMK A01 T01001065  RH  031%=      5-min Rain = 0
KPG1 130508Z 02012KT 10/M07 A3024 RMK A01 T00991066  RH  031%=      5-min Rain = 0
KPG1 130509Z 01012KT 10/M07 A3024 RMK A01 T00991066  RH  031%=      5-min Rain = 0
KPG1 130510Z 01012KT 10/M07 A3024 RMK A01 T00991066  RH  031%=      5-min Rain = 0
KPG1 130511Z 01012KT 10/M07 A3024 RMK A01 T00991067  RH  030%=      5-min Rain = 0
KPG1 130512Z 01012KT 10/M07 A3024 RMK A01 T00991067  RH  030%=      5-min Rain = 0
KPG1 130513Z 01012KT 10/M07 A3024 RMK A01 T00991067  RH  030%=      5-min Rain = 0
KPG1 130514Z 01012KT 10/M07 A3024 RMK A01 T00991067  RH  030%=      5-min Rain = 0
KPG1 130515Z 01012KT 10/M07 A3024 RMK A01 T00991068  RH  030%=      5-min Rain = 0
KPG1 130516Z 01011KT 10/M07 A3024 RMK A01 T01001068  RH  030%=      5-min Rain = 0
KPG1 130517Z 01012KT 10/M07 A3024 RMK A01 T01001068  RH  030%=      5-min Rain = 0
KPG1 130518Z 02011KT 10/M07 A3024 RMK A01 T01001069  RH  030%=      5-min Rain = 0
KPG1 130519Z 01012KT 10/M07 A3024 RMK A01 T01001069  RH  030%=      5-min Rain = 0
KPG1 130520Z 01012KT 10/M07 A3024 RMK A01 T01001070  RH  030%=      5-min Rain = 0
KPG1 130521Z 01011KT 10/M07 A3024 RMK A01 T01001070  RH  029%=      5-min Rain = 0
KPG1 130522Z 01011KT 10/M07 A3024 RMK A01 T01001070  RH  029%=      5-min Rain = 0
KPG1 130523Z 01012KT 10/M07 A3024 RMK A01 T01001071  RH  029%=      5-min Rain = 0
KPG1 130524Z 01011KT 10/M07 A3024 RMK A01 T01011071  RH  029%=      5-min Rain = 0
KPG1 130525Z 02011KT 10/M07 A3024 RMK A01 T01011072  RH  029%=      5-min Rain = 0
KPG1 130526Z 01012KT 10/M07 A3024 RMK A01 T01021072  RH  029%=      5-min Rain = 0
KPG1 130527Z 02010KT 10/M07 A3025 RMK A01 T01021072  RH  029%=      5-min Rain = 0
KPG1 130528Z 01011KT 10/M07 A3025 RMK A01 T01021072  RH  029%=      5-min Rain = 0
KPG1 130529Z 01011KT 10/M07 A3025 RMK A01 T01021073  RH  029%=      5-min Rain = 0
KPG1 130530Z 01012KT 10/M07 A3025 RMK A01 T01021073  RH  028%=      5-min Rain = 0
KPG1 130531Z 01011KT 10/M07 A3024 RMK A01 T01021074  RH  028%=      5-min Rain = 0
KPG1 130532Z 01011KT 10/M07 A3024 RMK A01 T01031074  RH  028%=      5-min Rain = 0
KPG1 130533Z 01012KT 10/M07 A3025 RMK A01 T01031074  RH  028%=      5-min Rain = 0
KPG1 130534Z 01013KT 10/M07 A3024 RMK A01 T01031074  RH  028%=      5-min Rain = 0
KPG1 130535Z 01013KT 10/M07 A3025 RMK A01 T01031074  RH  028%=      5-min Rain = 0
KPG1 130536Z 01013KT 10/M07 A3025 RMK A01 T01041074  RH  028%=      5-min Rain = 0
KPG1 130537Z 01012KT 10/M08 A3025 RMK A01 T01041075  RH  028%=      5-min Rain = 0
KPG1 130538Z 01013KT 10/M08 A3025 RMK A01 T01041075  RH  028%=      5-min Rain = 0
KPG1 130539Z 01013KT 10/M07 A3025 RMK A01 T01041074  RH  028%=      5-min Rain = 0
KPG1 130540Z 01013KT 10/M08 A3025 RMK A01 T01041075  RH  028%=      5-min Rain = 0
KPG1 130541Z 00013KT 10/M08 A3025 RMK A01 T01031075  RH  028%=      5-min Rain = 0
KPG1 130542Z 01013KT 10/M08 A3025 RMK A01 T01031075  RH  028%=      5-min Rain = 0
KPG1 130543Z 01013KT 10/M08 A3025 RMK A01 T01031075  RH  028%=      5-min Rain = 0
KPG1 130544Z 01012KT 10/M08 A3025 RMK A01 T01031076  RH  028%=      5-min Rain = 0
KPG1 130545Z 02012KT 10/M08 A3025 RMK A01 T01031076  RH  028%=      5-min Rain = 0
KPG1 130546Z 02011KT 10/M08 A3025 RMK A01 T01031076  RH  028%=      5-min Rain = 0
KPG1 130547Z 02011KT 10/M08 A3025 RMK A01 T01021076  RH  028%=      5-min Rain = 0
KPG1 130548Z 02010KT 10/M08 A3025 RMK A01 T01021075  RH  028%=      5-min Rain = 0
KPG1 130549Z 02011KT 10/M08 A3025 RMK A01 T01011076  RH  028%=      5-min Rain = 0
KPG1 130550Z 02010KT 10/M08 A3025 RMK A01 T01001076  RH  028%=      5-min Rain = 0
KPG1 130551Z 02011KT 10/M08 A3025 RMK A01 T00991076  RH  028%=      5-min Rain = 0
KPG1 130552Z 02011KT 10/M08 A3025 RMK A01 T00991076  RH  028%=      5-min Rain = 0
KPG1 130553Z 03012KT 10/M08 A3025 RMK A01 T00961076  RH  029%=      5-min Rain = 0
KPG1 130554Z 03012KT 10/M08 A3025 RMK A01 T00951076  RH  029%=      5-min Rain = 0
KPG1 130555Z 02011KT 10/M08 A3025 RMK A01 T00951075  RH  029%=      5-min Rain = 0
KPG1 130556Z 02012KT 09/M08 A3025 RMK A01 T00941075  RH  029%=      5-min Rain = 0
KPG1 130557Z 02012KT 09/M08 A3025 RMK A01 T00941075  RH  030%=      5-min Rain = 0
KPG1 130558Z 03012KT 09/M07 A3025 RMK A01 T00941074  RH  030%=      5-min Rain = 0
KPG1 130559Z 03011KT 09/M07 A3025 RMK A01 T00941074  RH  030%=      5-min Rain = 0
KPG1 130600Z 03012KT 09/M07 A3025 RMK A01 T00941074  RH  030%=      5-min Rain = 0

Page generated in 9.6284 seconds.